Wetterdaten: Samstag, 10.01.2015
Datum Zeit Temp. Aussen +5cm Feuchte Auss Luftdruck Regen Sonnenschein Regendauer Solar Windben
10.01.2015 00:00 12,9 C 11,7 C 98 % 1012,7 hPa 0,0 l/m 0 min 0 min 0 W/m 31,4 km/h (5 Bft)
10.01.2015 00:02 12,9 C 11,7 C 98 % 1012,5 hPa 0,0 l/m 0 min 0 min 0 W/m 14,6 km/h (3 Bft)
10.01.2015 00:05 13,0 C 11,7 C 98 % 1012,4 hPa 0,0 l/m 0 min 0 min 0 W/m 35,6 km/h (5 Bft)
10.01.2015 00:07 13,1 C 11,7 C 98 % 1012,5 hPa 0,0 l/m 0 min 0 min 0 W/m 43,9 km/h (6 Bft)
10.01.2015 00:08 13,1 C 11,7 C 98 % 1012,7 hPa 0,0 l/m 0 min 0 min 0 W/m 43,9 km/h (6 Bft)
10.01.2015 00:10 13,1 C 11,7 C 98 % 1012,8 hPa 0,0 l/m 0 min 0 min 0 W/m 43,9 km/h (6 Bft)
10.01.2015 00:12 13,1 C 11,7 C 98 % 1012,6 hPa 0,0 l/m 0 min 0 min 0 W/m 37,7 km/h (5 Bft)
10.01.2015 00:14 13,2 C 11,7 C 98 % 1012,6 hPa 0,0 l/m 0 min 0 min 0 W/m 35,6 km/h (5 Bft)
10.01.2015 00:16 13,2 C 11,7 C 97 % 1012,6 hPa 0,0 l/m 0 min 0 min 0 W/m 31,4 km/h (5 Bft)
10.01.2015 00:18 13,2 C 11,7 C 97 % 1012,5 hPa 0,0 l/m 0 min 0 min 0 W/m 33,5 km/h (5 Bft)
10.01.2015 00:20 13,2 C 11,7 C 97 % 1012,4 hPa 0,0 l/m 0 min 0 min 0 W/m 43,9 km/h (6 Bft)
10.01.2015 00:22 13,3 C 11,7 C 97 % 1012,4 hPa 0,0 l/m 0 min 0 min 0 W/m 46,0 km/h (6 Bft)
10.01.2015 00:24 13,3 C 11,7 C 97 % 1012,4 hPa 0,0 l/m 0 min 0 min 0 W/m 29,3 km/h (5 Bft)
10.01.2015 00:26 13,3 C 11,7 C 97 % 1012,4 hPa 0,0 l/m 0 min 0 min 0 W/m 39,7 km/h (6 Bft)
10.01.2015 00:28 13,3 C 11,7 C 97 % 1012,4 hPa 0,0 l/m 0 min 0 min 0 W/m 31,4 km/h (5 Bft)
10.01.2015 00:30 13,3 C 11,7 C 97 % 1012,4 hPa 0,0 l/m 0 min 0 min 0 W/m 39,7 km/h (6 Bft)
10.01.2015 00:32 13,3 C 11,7 C 96 % 1012,3 hPa 0,0 l/m 0 min 0 min 0 W/m 41,8 km/h (6 Bft)
10.01.2015 00:34 13,4 C 11,7 C 96 % 1012,4 hPa 0,0 l/m 0 min 0 min 0 W/m 46,0 km/h (6 Bft)
10.01.2015 00:36 13,4 C 11,7 C 96 % 1012,4 hPa 0,0 l/m 0 min 0 min 0 W/m 48,1 km/h (6 Bft)
10.01.2015 00:38 13,4 C 11,7 C 96 % 1012,3 hPa 0,0 l/m 0 min 0 min 0 W/m 39,7 km/h (6 Bft)
10.01.2015 00:40 13,5 C 11,7 C 96 % 1012,4 hPa 0,0 l/m 0 min 0 min 0 W/m 46,0 km/h (6 Bft)
10.01.2015 00:42 13,5 C 11,7 C 95 % 1012,4 hPa 0,0 l/m 0 min 0 min 0 W/m 46,0 km/h (6 Bft)
10.01.2015 00:44 13,5 C 11,7 C 95 % 1012,4 hPa 0,0 l/m 0 min 0 min 0 W/m 41,8 km/h (6 Bft)
10.01.2015 00:46 13,6 C 11,7 C 95 % 1012,4 hPa 0,0 l/m 0 min 0 min 0 W/m 35,6 km/h (5 Bft)
10.01.2015 00:48 13,6 C 11,7 C 95 % 1012,4 hPa 0,0 l/m 0 min 0 min 0 W/m 37,7 km/h (5 Bft)
10.01.2015 00:50 13,6 C 11,7 C 94 % 1012,5 hPa 0,0 l/m 0 min 0 min 0 W/m 35,6 km/h (5 Bft)
10.01.2015 00:52 13,6 C 11,7 C 94 % 1012,6 hPa 0,0 l/m 0 min 0 min 0 W/m 31,4 km/h (5 Bft)
10.01.2015 00:54 13,6 C 11,7 C 94 % 1012,5 hPa 0,0 l/m 0 min 0 min 0 W/m 52,3 km/h (7 Bft)
10.01.2015 00:56 13,6 C 11,7 C 94 % 1012,6 hPa 0,0 l/m 0 min 0 min 0 W/m 52,3 km/h (7 Bft)
10.01.2015 00:58 13,7 C 11,7 C 94 % 1012,5 hPa 0,0 l/m 0 min 0 min 0 W/m 33,5 km/h (5 Bft)
10.01.2015 01:00 13,7 C 11,7 C 94 % 1012,5 hPa 0,0 l/m 0 min 0 min 0 W/m 27,2 km/h (4 Bft)
10.01.2015 01:02 13,7 C 11,7 C 93 % 1012,5 hPa 0,0 l/m 0 min 0 min 0 W/m 48,1 km/h (6 Bft)
10.01.2015 01:04 13,7 C 11,7 C 93 % 1012,5 hPa 0,0 l/m 0 min 0 min 0 W/m 41,8 km/h (6 Bft)
10.01.2015 01:06 13,7 C 11,7 C 93 % 1012,6 hPa 0,0 l/m 0 min 0 min 0 W/m 31,4 km/h (5 Bft)
10.01.2015 01:08 13,7 C 11,7 C 93 % 1012,5 hPa 0,0 l/m 0 min 0 min 0 W/m 29,3 km/h (5 Bft)
10.01.2015 01:10 13,7 C 11,7 C 93 % 1012,5 hPa 0,0 l/m 0 min 0 min 0 W/m 46,0 km/h (6 Bft)
10.01.2015 01:12 13,7 C 11,7 C 93 % 1012,4 hPa 0,0 l/m 0 min 0 min 0 W/m 50,2 km/h (7 Bft)
10.01.2015 01:14 13,7 C 11,7 C 93 % 1012,6 hPa 0,0 l/m 0 min 0 min 0 W/m 48,1 km/h (6 Bft)
10.01.2015 01:16 13,7 C 11,7 C 92 % 1012,9 hPa 0,0 l/m 0 min 0 min 0 W/m 39,7 km/h (6 Bft)
10.01.2015 01:18 13,7 C 11,7 C 92 % 1012,7 hPa 0,0 l/m 0 min 0 min 0 W/m 35,6 km/h (5 Bft)
10.01.2015 01:20 13,7 C 11,7 C 92 % 1012,5 hPa 0,0 l/m 0 min 0 min 0 W/m 37,7 km/h (5 Bft)
10.01.2015 01:22 13,7 C 11,7 C 92 % 1012,7 hPa 0,0 l/m 0 min 0 min 0 W/m 46,0 km/h (6 Bft)
10.01.2015 01:24 13,7 C 11,7 C 92 % 1012,7 hPa 0,0 l/m 0 min 0 min 0 W/m 39,7 km/h (6 Bft)
10.01.2015 01:26 13,7 C 11,7 C 92 % 1012,6 hPa 0,0 l/m 0 min 0 min 0 W/m 48,1 km/h (6 Bft)
10.01.2015 01:28 13,7 C 11,7 C 92 % 1012,6 hPa 0,0 l/m 0 min 0 min 0 W/m 35,6 km/h (5 Bft)
10.01.2015 01:30 13,7 C 11,7 C 92 % 1012,6 hPa 0,0 l/m 0 min 0 min 0 W/m 39,7 km/h (6 Bft)
10.01.2015 01:32 13,7 C 11,7 C 92 % 1012,5 hPa 0,0 l/m 0 min 0 min 0 W/m 43,9 km/h (6 Bft)
10.01.2015 01:34 13,7 C 11,7 C 92 % 1012,5 hPa 0,0 l/m 0 min 0 min 0 W/m 43,9 km/h (6 Bft)
10.01.2015 01:36 13,7 C 11,7 C 91 % 1012,5 hPa 0,0 l/m 0 min 0 min 0 W/m 41,8 km/h (6 Bft)
10.01.2015 01:38 13,7 C 11,7 C 91 % 1012,5 hPa 0,0 l/m 0 min 0 min 0 W/m 33,5 km/h (5 Bft)
10.01.2015 01:40 13,7 C 11,7 C 91 % 1012,6 hPa 0,0 l/m 0 min 0 min 0 W/m 48,1 km/h (6 Bft)
10.01.2015 01:42 13,7 C 11,7 C 91 % 1012,7 hPa 0,0 l/m 0 min 0 min 0 W/m 35,6 km/h (5 Bft)
10.01.2015 01:44 13,7 C 11,7 C 91 % 1012,4 hPa 0,0 l/m 0 min 0 min 0 W/m 39,7 km/h (6 Bft)
10.01.2015 01:46 13,7 C 11,7 C 91 % 1012,5 hPa 0,0 l/m 0 min 0 min 0 W/m 31,4 km/h (5 Bft)
10.01.2015 01:48 13,7 C 11,7 C 91 % 1012,6 hPa 0,0 l/m 0 min 0 min 0 W/m 43,9 km/h (6 Bft)
10.01.2015 01:50 13,7 C 11,7 C 91 % 1012,7 hPa 0,0 l/m 0 min 0 min 0 W/m 50,2 km/h (7 Bft)
10.01.2015 01:52 13,7 C 11,7 C 91 % 1012,8 hPa 0,0 l/m 0 min 0 min 0 W/m 73,2 km/h (8 Bft)
10.01.2015 01:54 13,7 C 11,7 C 91 % 1012,8 hPa 0,0 l/m 0 min 0 min 0 W/m 50,2 km/h (7 Bft)
10.01.2015 01:56 13,7 C 11,7 C 91 % 1012,7 hPa 0,0 l/m 0 min 0 min 0 W/m 35,6 km/h (5 Bft)
10.01.2015 01:58 13,7 C 11,7 C 91 % 1012,7 hPa 0,0 l/m 0 min 0 min 0 W/m 56,5 km/h (7 Bft)
10.01.2015 02:00 13,7 C 11,7 C 91 % 1012,7 hPa 0,0 l/m 0 min 0 min 0 W/m 46,0 km/h (6 Bft)
10.01.2015 02:02 13,7 C 11,7 C 91 % 1012,9 hPa 0,0 l/m 0 min 0 min 0 W/m 50,2 km/h (7 Bft)
10.01.2015 02:04 13,7 C 11,7 C 91 % 1012,6 hPa 0,0 l/m 0 min 0 min 0 W/m 43,9 km/h (6 Bft)
10.01.2015 02:06 13,7 C 11,7 C 91 % 1012,7 hPa 0,0 l/m 0 min 0 min 0 W/m 43,9 km/h (6 Bft)
10.01.2015 02:08 13,7 C 11,7 C 91 % 1012,5 hPa 0,0 l/m 0 min 0 min 0 W/m 56,5 km/h (7 Bft)
10.01.2015 02:10 13,7 C 11,7 C 91 % 1012,8 hPa 0,0 l/m 0 min 0 min 0 W/m 46,0 km/h (6 Bft)
10.01.2015 02:12 13,7 C 11,7 C 91 % 1012,9 hPa 0,0 l/m 0 min 0 min 0 W/m 79,6 km/h (9 Bft)
10.01.2015 02:14 13,7 C 11,7 C 91 % 1012,8 hPa 0,0 l/m 0 min 0 min 0 W/m 37,7 km/h (5 Bft)
10.01.2015 02:16 13,7 C 11,7 C 91 % 1012,8 hPa 0,0 l/m 0 min 0 min 0 W/m 54,4 km/h (7 Bft)
10.01.2015 02:18 13,7 C 11,7 C 91 % 1012,8 hPa 0,0 l/m 0 min 0 min 0 W/m 48,1 km/h (6 Bft)
10.01.2015 02:20 13,7 C 11,7 C 91 % 1012,8 hPa 0,0 l/m 0 min 0 min 0 W/m 35,6 km/h (5 Bft)
10.01.2015 02:22 13,7 C 11,7 C 91 % 1012,9 hPa 0,0 l/m 0 min 0 min 0 W/m 56,5 km/h (7 Bft)
10.01.2015 02:24 13,7 C 11,7 C 91 % 1012,9 hPa 0,0 l/m 0 min 0 min 0 W/m 54,4 km/h (7 Bft)
10.01.2015 02:26 13,7 C 11,7 C 91 % 1012,7 hPa 0,0 l/m 0 min 0 min 0 W/m 31,4 km/h (5 Bft)
10.01.2015 02:28 13,7 C 11,7 C 91 % 1012,9 hPa 0,0 l/m 0 min 0 min 0 W/m 37,7 km/h (5 Bft)
10.01.2015 02:30 13,6 C 11,7 C 91 % 1012,9 hPa 0,0 l/m 0 min 0 min 0 W/m 37,7 km/h (5 Bft)
10.01.2015 02:32 13,6 C 11,7 C 91 % 1012,9 hPa 0,0 l/m 0 min 0 min 0 W/m 50,2 km/h (7 Bft)
10.01.2015 02:34 13,6 C 11,7 C 91 % 1012,8 hPa 0,0 l/m 0 min 0 min 0 W/m 48,1 km/h (6 Bft)
10.01.2015 02:36 13,6 C 11,7 C 90 % 1012,9 hPa 0,0 l/m 0 min 0 min 0 W/m 48,1 km/h (6 Bft)
10.01.2015 02:38 13,6 C 11,7 C 90 % 1013,0 hPa 0,0 l/m 0 min 0 min 0 W/m 50,2 km/h (7 Bft)
10.01.2015 02:40 13,6 C 11,7 C 90 % 1012,9 hPa 0,0 l/m 0 min 0 min 0 W/m 58,6 km/h (7 Bft)
10.01.2015 02:42 13,6 C 11,7 C 90 % 1013,0 hPa 0,0 l/m 0 min 0 min 0 W/m 37,7 km/h (5 Bft)
10.01.2015 02:44 13,6 C 11,7 C 90 % 1012,9 hPa 0,0 l/m 0 min 0 min 0 W/m 56,5 km/h (7 Bft)
10.01.2015 02:46 13,6 C 11,7 C 90 % 1013,0 hPa 0,0 l/m 0 min 0 min 0 W/m 46,0 km/h (6 Bft)
10.01.2015 02:48 13,6 C 11,7 C 90 % 1013,0 hPa 0,0 l/m 0 min 0 min 0 W/m 37,7 km/h (5 Bft)
10.01.2015 02:50 13,6 C 11,7 C 90 % 1013,0 hPa 0,0 l/m 0 min 0 min 0 W/m 48,1 km/h (6 Bft)
10.01.2015 02:52 13,6 C 11,7 C 90 % 1013,1 hPa 0,0 l/m 0 min 0 min 0 W/m 37,7 km/h (5 Bft)
10.01.2015 02:54 13,6 C 11,7 C 90 % 1013,1 hPa 0,0 l/m 0 min 0 min 0 W/m 37,7 km/h (5 Bft)
10.01.2015 02:56 13,6 C 11,7 C 90 % 1013,1 hPa 0,0 l/m 0 min 0 min 0 W/m 39,7 km/h (6 Bft)
10.01.2015 02:58 13,6 C 11,7 C 90 % 1013,1 hPa 0,0 l/m 0 min 0 min 0 W/m 33,5 km/h (5 Bft)
10.01.2015 03:00 13,6 C 11,7 C 90 % 1013,2 hPa 0,0 l/m 0 min 0 min 0 W/m 46,0 km/h (6 Bft)
10.01.2015 03:02 13,6 C 11,7 C 90 % 1013,2 hPa 0,0 l/m 0 min 0 min 0 W/m 39,7 km/h (6 Bft)
10.01.2015 03:04 13,6 C 11,7 C 90 % 1013,2 hPa 0,0 l/m 0 min 0 min 0 W/m 37,7 km/h (5 Bft)
10.01.2015 03:06 13,6 C 11,7 C 90 % 1013,2 hPa 0,0 l/m 0 min 0 min 0 W/m 37,7 km/h (5 Bft)
10.01.2015 03:08 13,5 C 11,7 C 90 % 1013,3 hPa 0,0 l/m 0 min 0 min 0 W/m 56,5 km/h (7 Bft)
10.01.2015 03:10 13,5 C 11,7 C 90 % 1013,3 hPa 0,0 l/m 0 min 0 min 0 W/m 46,0 km/h (6 Bft)
10.01.2015 03:12 13,5 C 11,7 C 90 % 1013,2 hPa 0,0 l/m 0 min 0 min 0 W/m 46,0 km/h (6 Bft)
10.01.2015 03:14 13,5 C 11,7 C 90 % 1013,2 hPa 0,0 l/m 0 min 0 min 0 W/m 46,0 km/h (6 Bft)
10.01.2015 03:16 13,5 C 11,7 C 90 % 1013,3 hPa 0,0 l/m 0 min 0 min 0 W/m 46,0 km/h (6 Bft)
10.01.2015 03:18 13,5 C 11,7 C 90 % 1013,3 hPa 0,0 l/m 0 min 0 min 0 W/m 62,8 km/h (8 Bft)
10.01.2015 03:20 13,5 C 11,7 C 90 % 1013,2 hPa 0,0 l/m 0 min 0 min 0 W/m 43,9 km/h (6 Bft)
10.01.2015 03:22 13,4 C 11,7 C 90 % 1013,3 hPa 0,0 l/m 0 min 0 min 0 W/m 50,2 km/h (7 Bft)
10.01.2015 03:24 13,4 C 11,7 C 90 % 1013,4 hPa 0,0 l/m 0 min 0 min 0 W/m 60,7 km/h (7 Bft)
10.01.2015 03:26 13,4 C 11,7 C 90 % 1013,3 hPa 0,0 l/m 0 min 0 min 0 W/m 56,5 km/h (7 Bft)
10.01.2015 03:28 13,4 C 11,7 C 90 % 1013,3 hPa 0,0 l/m 0 min 0 min 0 W/m 50,2 km/h (7 Bft)
10.01.2015 03:30 13,4 C 11,7 C 90 % 1013,2 hPa 0,0 l/m 0 min 0 min 0 W/m 50,2 km/h (7 Bft)
10.01.2015 03:32 13,4 C 11,7 C 90 % 1013,2 hPa 0,0 l/m 0 min 0 min 0 W/m 43,9 km/h (6 Bft)
10.01.2015 03:34 13,4 C 11,7 C 90 % 1013,2 hPa 0,0 l/m 0 min 0 min 0 W/m 41,8 km/h (6 Bft)
10.01.2015 03:36 13,4 C 11,7 C 90 % 1013,3 hPa 0,0 l/m 0 min 0 min 0 W/m 46,0 km/h (6 Bft)
10.01.2015 03:38 13,4 C 11,7 C 90 % 1013,3 hPa 0,0 l/m 0 min 0 min 0 W/m 48,1 km/h (6 Bft)
10.01.2015 03:40 13,4 C 11,7 C 90 % 1013,3 hPa 0,0 l/m 0 min 0 min 0 W/m 52,3 km/h (7 Bft)
10.01.2015 03:42 13,4 C 11,7 C 90 % 1013,2 hPa 0,0 l/m 0 min 0 min 0 W/m 33,5 km/h (5 Bft)
10.01.2015 03:44 13,4 C 11,7 C 90 % 1013,3 hPa 0,0 l/m 0 min 0 min 0 W/m 48,1 km/h (6 Bft)
10.01.2015 03:46 13,4 C 11,7 C 90 % 1013,2 hPa 0,0 l/m 0 min 0 min 0 W/m 41,8 km/h (6 Bft)
10.01.2015 03:48 13,3 C 11,7 C 90 % 1013,2 hPa 0,0 l/m 0 min 0 min 0 W/m 46,0 km/h (6 Bft)
10.01.2015 03:50 13,3 C 11,7 C 90 % 1013,1 hPa 0,0 l/m 0 min 0 min 0 W/m 43,9 km/h (6 Bft)
10.01.2015 03:52 13,3 C 11,7 C 90 % 1013,1 hPa 0,0 l/m 0 min 0 min 0 W/m 41,8 km/h (6 Bft)
10.01.2015 03:54 13,3 C 11,7 C 90 % 1013,2 hPa 0,0 l/m 0 min 0 min 0 W/m 43,9 km/h (6 Bft)
10.01.2015 03:56 13,3 C 11,7 C 90 % 1013,1 hPa 0,0 l/m 0 min 0 min 0 W/m 39,7 km/h (6 Bft)
10.01.2015 03:58 13,3 C 11,7 C 90 % 1013,1 hPa 0,0 l/m 0 min 0 min 0 W/m 46,0 km/h (6 Bft)
10.01.2015 04:00 13,3 C 11,7 C 90 % 1013,0 hPa 0,0 l/m 0 min 0 min 0 W/m 48,1 km/h (6 Bft)
10.01.2015 04:02 13,3 C 11,7 C 90 % 1013,0 hPa 0,0 l/m 0 min 0 min 0 W/m 35,6 km/h (5 Bft)
10.01.2015 04:04 13,3 C 11,7 C 90 % 1013,1 hPa 0,0 l/m 0 min 0 min 0 W/m 46,0 km/h (6 Bft)
10.01.2015 04:06 13,3 C 11,7 C 90 % 1013,0 hPa 0,0 l/m 0 min 0 min 0 W/m 43,9 km/h (6 Bft)
10.01.2015 04:08 13,3 C 11,7 C 90 % 1013,0 hPa 0,0 l/m 0 min 0 min 0 W/m 43,9 km/h (6 Bft)
10.01.2015 04:10 13,3 C 11,7 C 90 % 1012,9 hPa 0,0 l/m 0 min 0 min 0 W/m 35,6 km/h (5 Bft)
10.01.2015 04:12 13,3 C 11,7 C 90 % 1012,9 hPa 0,0 l/m 0 min 0 min 0 W/m 43,9 km/h (6 Bft)
10.01.2015 04:14 13,3 C 11,7 C 90 % 1012,9 hPa 0,0 l/m 0 min 0 min 0 W/m 50,2 km/h (7 Bft)
10.01.2015 04:16 13,3 C 11,7 C 90 % 1012,8 hPa 0,0 l/m 0 min 0 min 0 W/m 54,4 km/h (7 Bft)
10.01.2015 04:18 13,3 C 11,7 C 90 % 1012,6 hPa 0,0 l/m 0 min 0 min 0 W/m 41,8 km/h (6 Bft)
10.01.2015 04:20 13,3 C 11,7 C 90 % 1012,8 hPa 0,0 l/m 0 min 0 min 0 W/m 41,8 km/h (6 Bft)
10.01.2015 04:22 13,3 C 11,7 C 90 % 1012,8 hPa 0,0 l/m 0 min 0 min 0 W/m 43,9 km/h (6 Bft)
10.01.2015 04:24 13,3 C 11,7 C 90 % 1012,8 hPa 0,0 l/m 0 min 0 min 0 W/m 54,4 km/h (7 Bft)
10.01.2015 04:26 13,3 C 11,7 C 90 % 1012,7 hPa 0,0 l/m 0 min 0 min 0 W/m 37,7 km/h (5 Bft)
10.01.2015 04:28 13,2 C 11,7 C 90 % 1012,7 hPa 0,0 l/m 0 min 0 min 0 W/m 37,7 km/h (5 Bft)
10.01.2015 04:30 13,2 C 11,7 C 90 % 1012,7 hPa 0,0 l/m 0 min 0 min 0 W/m 46,0 km/h (6 Bft)
10.01.2015 04:32 13,2 C 11,7 C 90 % 1012,6 hPa 0,0 l/m 0 min 0 min 0 W/m 48,1 km/h (6 Bft)
10.01.2015 04:34 13,2 C 11,7 C 90 % 1012,5 hPa 0,0 l/m 0 min 0 min 0 W/m 48,1 km/h (6 Bft)
10.01.2015 04:36 13,2 C 11,7 C 90 % 1012,6 hPa 0,0 l/m 0 min 0 min 0 W/m 37,7 km/h (5 Bft)
10.01.2015 04:38 13,2 C 11,7 C 90 % 1012,5 hPa 0,0 l/m 0 min 0 min 0 W/m 33,5 km/h (5 Bft)
10.01.2015 04:40 13,2 C 11,7 C 90 % 1012,6 hPa 0,0 l/m 0 min 0 min 0 W/m 39,7 km/h (6 Bft)
10.01.2015 04:42 13,2 C 11,7 C 90 % 1012,7 hPa 0,0 l/m 0 min 0 min 0 W/m 56,5 km/h (7 Bft)
10.01.2015 04:44 13,2 C 11,7 C 90 % 1012,6 hPa 0,0 l/m 0 min 0 min 0 W/m 46,0 km/h (6 Bft)
10.01.2015 04:46 13,2 C 11,7 C 90 % 1012,4 hPa 0,0 l/m 0 min 0 min 0 W/m 43,9 km/h (6 Bft)
10.01.2015 04:48 13,2 C 11,7 C 90 % 1012,3 hPa 0,0 l/m 0 min 0 min 0 W/m 50,2 km/h (7 Bft)
10.01.2015 04:50 13,2 C 11,7 C 90 % 1012,3 hPa 0,0 l/m 0 min 0 min 0 W/m 48,1 km/h (6 Bft)
10.01.2015 04:52 13,2 C 11,7 C 90 % 1012,4 hPa 0,0 l/m 0 min 0 min 0 W/m 43,9 km/h (6 Bft)
10.01.2015 04:54 13,2 C 11,7 C 90 % 1012,3 hPa 0,0 l/m 0 min 0 min 0 W/m 41,8 km/h (6 Bft)
10.01.2015 04:56 13,2 C 11,7 C 90 % 1012,4 hPa 0,0 l/m 0 min 0 min 0 W/m 50,2 km/h (7 Bft)
10.01.2015 04:58 13,2 C 11,7 C 90 % 1012,3 hPa 0,0 l/m 0 min 0 min 0 W/m 41,8 km/h (6 Bft)
10.01.2015 05:00 13,2 C 11,7 C 90 % 1012,3 hPa 0,0 l/m 0 min 0 min 0 W/m 48,1 km/h (6 Bft)
10.01.2015 05:02 13,2 C 11,7 C 90 % 1012,5 hPa 0,0 l/m 0 min 0 min 0 W/m 52,3 km/h (7 Bft)
10.01.2015 05:04 13,2 C 11,7 C 90 % 1012,2 hPa 0,0 l/m 0 min 0 min 0 W/m 48,1 km/h (6 Bft)
10.01.2015 05:06 13,2 C 11,7 C 90 % 1012,1 hPa 0,0 l/m 0 min 0 min 0 W/m 46,0 km/h (6 Bft)
10.01.2015 05:08 13,2 C 11,7 C 90 % 1012,2 hPa 0,0 l/m 0 min 0 min 0 W/m 39,7 km/h (6 Bft)
10.01.2015 05:10 13,2 C 11,7 C 90 % 1012,1 hPa 0,0 l/m 0 min 0 min 0 W/m 43,9 km/h (6 Bft)
10.01.2015 05:12 13,2 C 11,7 C 90 % 1012,0 hPa 0,0 l/m 0 min 0 min 0 W/m 39,7 km/h (6 Bft)
10.01.2015 05:14 13,2 C 11,7 C 90 % 1012,0 hPa 0,0 l/m 0 min 0 min 0 W/m 41,8 km/h (6 Bft)
10.01.2015 05:16 13,2 C 11,7 C 90 % 1012,0 hPa 0,0 l/m 0 min 0 min 0 W/m 37,7 km/h (5 Bft)
10.01.2015 05:18 13,2 C 11,7 C 91 % 1012,1 hPa 0,0 l/m 0 min 0 min 0 W/m 54,4 km/h (7 Bft)
10.01.2015 05:20 13,2 C 11,7 C 91 % 1012,0 hPa 0,0 l/m 0 min 0 min 0 W/m 39,7 km/h (6 Bft)
10.01.2015 05:22 13,2 C 11,7 C 91 % 1011,9 hPa 0,0 l/m 0 min 0 min 0 W/m 60,7 km/h (7 Bft)
10.01.2015 05:24 13,2 C 11,7 C 91 % 1012,0 hPa 0,0 l/m 0 min 0 min 0 W/m 48,1 km/h (6 Bft)
10.01.2015 05:26 13,1 C 11,7 C 91 % 1011,9 hPa 0,0 l/m 0 min 0 min 0 W/m 43,9 km/h (6 Bft)
10.01.2015 05:28 13,1 C 11,7 C 91 % 1012,0 hPa 0,0 l/m 0 min 0 min 0 W/m 43,9 km/h (6 Bft)
10.01.2015 05:30 13,1 C 11,7 C 91 % 1012,0 hPa 0,0 l/m 0 min 0 min 0 W/m 50,2 km/h (7 Bft)
10.01.2015 05:32 13,1 C 11,7 C 91 % 1011,9 hPa 0,0 l/m 0 min 0 min 0 W/m 39,7 km/h (6 Bft)
10.01.2015 05:34 13,1 C 11,7 C 91 % 1012,0 hPa 0,0 l/m 0 min 0 min 0 W/m 64,9 km/h (8 Bft)
10.01.2015 05:36 13,1 C 11,7 C 91 % 1011,9 hPa 0,0 l/m 0 min 0 min 0 W/m 54,4 km/h (7 Bft)
10.01.2015 05:38 13,1 C 11,7 C 91 % 1011,9 hPa 0,0 l/m 0 min 0 min 0 W/m 54,4 km/h (7 Bft)
10.01.2015 05:40 13,1 C 11,7 C 91 % 1011,9 hPa 0,0 l/m 0 min 0 min 0 W/m 50,2 km/h (7 Bft)
10.01.2015 05:42 13,0 C 11,7 C 91 % 1011,9 hPa 0,0 l/m 0 min 0 min 0 W/m 41,8 km/h (6 Bft)
10.01.2015 05:44 13,0 C 11,7 C 91 % 1011,8 hPa 0,0 l/m 0 min 0 min 0 W/m 37,7 km/h (5 Bft)
10.01.2015 05:46 13,0 C 11,1 C 91 % 1011,9 hPa 0,0 l/m 0 min 0 min 0 W/m 46,0 km/h (6 Bft)
10.01.2015 05:48 12,9 C 11,1 C 91 % 1012,0 hPa 0,0 l/m 0 min 0 min 0 W/m 66,9 km/h (8 Bft)
10.01.2015 05:50 12,9 C 11,1 C 91 % 1011,9 hPa 0,0 l/m 0 min 0 min 0 W/m 43,9 km/h (6 Bft)
10.01.2015 05:52 12,9 C 11,1 C 92 % 1011,9 hPa 0,0 l/m 0 min 0 min 0 W/m 60,7 km/h (7 Bft)
10.01.2015 05:54 12,9 C 11,1 C 92 % 1011,8 hPa 0,0 l/m 0 min 0 min 0 W/m 50,2 km/h (7 Bft)
10.01.2015 05:56 12,9 C 11,1 C 92 % 1011,8 hPa 0,0 l/m 0 min 0 min 0 W/m 64,9 km/h (8 Bft)
10.01.2015 05:58 12,8 C 11,1 C 92 % 1011,8 hPa 0,0 l/m 0 min 0 min 0 W/m 60,7 km/h (7 Bft)
10.01.2015 06:00 12,8 C 11,1 C 92 % 1012,0 hPa 0,0 l/m 0 min 0 min 0 W/m 60,7 km/h (7 Bft)
10.01.2015 06:02 12,8 C 11,1 C 92 % 1011,8 hPa 0,0 l/m 0 min 0 min 0 W/m 50,2 km/h (7 Bft)
10.01.2015 06:05 12,8 C 11,1 C 92 % 1011,7 hPa 0,0 l/m 0 min 0 min 0 W/m 50,2 km/h (7 Bft)
10.01.2015 06:07 12,8 C 11,1 C 91 % 1011,8 hPa 0,0 l/m 0 min 0 min 0 W/m 52,3 km/h (7 Bft)
10.01.2015 06:10 12,7 C 11,1 C 91 % 1011,7 hPa 0,0 l/m 0 min 0 min 0 W/m 56,5 km/h (7 Bft)
10.01.2015 06:12 12,7 C 11,1 C 91 % 1011,6 hPa 0,0 l/m 0 min 0 min 0 W/m 58,6 km/h (7 Bft)
10.01.2015 06:14 12,7 C 11,1 C 91 % 1011,5 hPa 0,0 l/m 0 min 0 min 0 W/m 50,2 km/h (7 Bft)
10.01.2015 06:16 12,7 C 11,1 C 91 % 1011,4 hPa 0,0 l/m 0 min 0 min 0 W/m 64,9 km/h (8 Bft)
10.01.2015 06:18 12,7 C 11,1 C 91 % 1011,5 hPa 0,0 l/m 0 min 0 min 0 W/m 60,7 km/h (7 Bft)
10.01.2015 06:20 12,7 C 11,1 C 91 % 1011,7 hPa 0,0 l/m 0 min 0 min 0 W/m 58,6 km/h (7 Bft)
10.01.2015 06:22 12,7 C 11,1 C 91 % 1011,4 hPa 0,0 l/m 0 min 0 min 0 W/m 62,8 km/h (8 Bft)
10.01.2015 06:24 12,7 C 11,1 C 91 % 1011,5 hPa 0,0 l/m 0 min 0 min 0 W/m 58,6 km/h (7 Bft)
10.01.2015 06:26 12,7 C 11,1 C 91 % 1011,3 hPa 0,0 l/m 0 min 0 min 0 W/m 60,7 km/h (7 Bft)
10.01.2015 06:28 12,7 C 11,1 C 90 % 1011,2 hPa 0,0 l/m 0 min 0 min 0 W/m 58,6 km/h (7 Bft)
10.01.2015 06:30 12,7 C 11,1 C 90 % 1011,3 hPa 0,0 l/m 0 min 0 min 0 W/m 54,4 km/h (7 Bft)
10.01.2015 06:32 12,7 C 11,1 C 90 % 1011,4 hPa 0,0 l/m 0 min 0 min 0 W/m 52,3 km/h (7 Bft)
10.01.2015 06:34 12,7 C 11,1 C 90 % 1011,3 hPa 0,0 l/m 0 min 0 min 0 W/m 60,7 km/h (7 Bft)
10.01.2015 06:36 12,7 C 11,1 C 90 % 1011,3 hPa 0,0 l/m 0 min 0 min 0 W/m 66,9 km/h (8 Bft)
10.01.2015 06:38 12,7 C 11,1 C 90 % 1011,5 hPa 0,0 l/m 0 min 0 min 0 W/m 71,1 km/h (8 Bft)
10.01.2015 06:40 12,7 C 11,1 C 89 % 1011,3 hPa 0,0 l/m 0 min 0 min 0 W/m 60,7 km/h (7 Bft)
10.01.2015 06:42 12,7 C 11,1 C 89 % 1011,4 hPa 0,0 l/m 0 min 0 min 0 W/m 56,5 km/h (7 Bft)
10.01.2015 06:44 12,7 C 11,1 C 89 % 1011,3 hPa 0,0 l/m 0 min 0 min 0 W/m 56,5 km/h (7 Bft)
10.01.2015 06:46 12,7 C 11,1 C 89 % 1011,3 hPa 0,0 l/m 0 min 0 min 0 W/m 58,6 km/h (7 Bft)
10.01.2015 06:48 12,7 C 11,1 C 88 % 1011,3 hPa 0,0 l/m 0 min 0 min 0 W/m 54,4 km/h (7 Bft)
10.01.2015 06:50 12,7 C 11,1 C 88 % 1011,2 hPa 0,0 l/m 0 min 0 min 0 W/m 52,3 km/h (7 Bft)
10.01.2015 06:52 12,7 C 11,1 C 88 % 1011,2 hPa 0,0 l/m 0 min 0 min 0 W/m 54,4 km/h (7 Bft)
10.01.2015 06:54 12,7 C 11,1 C 88 % 1011,2 hPa 0,0 l/m 0 min 0 min 0 W/m 69,0 km/h (8 Bft)
10.01.2015 06:56 12,7 C 11,1 C 88 % 1011,2 hPa 0,0 l/m 0 min 0 min 0 W/m 60,7 km/h (7 Bft)
10.01.2015 06:58 12,7 C 11,1 C 88 % 1011,1 hPa 0,0 l/m 0 min 0 min 0 W/m 48,1 km/h (6 Bft)
10.01.2015 07:00 12,7 C 11,1 C 87 % 1011,1 hPa 0,0 l/m 0 min 0 min 0 W/m 60,7 km/h (7 Bft)
10.01.2015 07:02 12,7 C 11,1 C 87 % 1011,0 hPa 0,0 l/m 0 min 0 min 0 W/m 58,6 km/h (7 Bft)
10.01.2015 07:04 12,7 C 11,1 C 87 % 1011,1 hPa 0,0 l/m 0 min 0 min 0 W/m 60,7 km/h (7 Bft)
10.01.2015 07:06 12,7 C 11,1 C 87 % 1011,1 hPa 0,0 l/m 0 min 0 min 0 W/m 54,4 km/h (7 Bft)
10.01.2015 07:08 12,7 C 11,1 C 87 % 1011,2 hPa 0,0 l/m 0 min 0 min 0 W/m 48,1 km/h (6 Bft)
10.01.2015 07:10 12,7 C 11,1 C 87 % 1011,1 hPa 0,0 l/m 0 min 0 min 0 W/m 54,4 km/h (7 Bft)
10.01.2015 07:12 12,7 C 11,1 C 86 % 1011,0 hPa 0,0 l/m 0 min 0 min 0 W/m 60,7 km/h (7 Bft)
10.01.2015 07:14 12,7 C 11,1 C 86 % 1011,0 hPa 0,0 l/m 0 min 0 min 0 W/m 43,9 km/h (6 Bft)
10.01.2015 07:16 12,7 C 11,1 C 86 % 1011,2 hPa 0,0 l/m 0 min 0 min 0 W/m 62,8 km/h (8 Bft)
10.01.2015 07:18 12,7 C 11,1 C 86 % 1011,1 hPa 0,0 l/m 0 min 0 min 0 W/m 56,5 km/h (7 Bft)
10.01.2015 07:20 12,7 C 11,1 C 86 % 1011,0 hPa 0,0 l/m 0 min 0 min 0 W/m 46,0 km/h (6 Bft)
10.01.2015 07:22 12,7 C 11,1 C 86 % 1010,9 hPa 0,0 l/m 0 min 0 min 0 W/m 52,3 km/h (7 Bft)
10.01.2015 07:24 12,7 C 11,1 C 86 % 1011,0 hPa 0,0 l/m 0 min 0 min 0 W/m 43,9 km/h (6 Bft)
10.01.2015 07:26 12,7 C 11,1 C 86 % 1010,9 hPa 0,0 l/m 0 min 0 min 0 W/m 60,7 km/h (7 Bft)
10.01.2015 07:28 12,7 C 11,1 C 86 % 1010,9 hPa 0,0 l/m 0 min 0 min 0 W/m 52,3 km/h (7 Bft)
10.01.2015 07:30 12,7 C 11,1 C 86 % 1010,9 hPa 0,0 l/m 0 min 0 min 0 W/m 50,2 km/h (7 Bft)
10.01.2015 07:32 12,7 C 11,1 C 86 % 1010,9 hPa 0,0 l/m 0 min 0 min 0 W/m 54,4 km/h (7 Bft)
10.01.2015 07:34 12,7 C 11,1 C 86 % 1010,9 hPa 0,0 l/m 0 min 0 min 0 W/m 43,9 km/h (6 Bft)
10.01.2015 07:36 12,7 C 11,1 C 85 % 1010,9 hPa 0,0 l/m 0 min 0 min 0 W/m 54,4 km/h (7 Bft)
10.01.2015 07:38 12,7 C 11,1 C 85 % 1010,7 hPa 0,0 l/m 0 min 0 min 0 W/m 60,7 km/h (7 Bft)
10.01.2015 07:40 12,7 C 11,1 C 85 % 1010,7 hPa 0,0 l/m 0 min 0 min 0 W/m 69,0 km/h (8 Bft)
10.01.2015 07:42 12,7 C 11,1 C 85 % 1010,9 hPa 0,0 l/m 0 min 0 min 0 W/m 52,3 km/h (7 Bft)
10.01.2015 07:44 12,7 C 11,1 C 85 % 1010,8 hPa 0,0 l/m 0 min 0 min 0 W/m 54,4 km/h (7 Bft)
10.01.2015 07:46 12,7 C 11,1 C 85 % 1010,8 hPa 0,0 l/m 0 min 0 min 0 W/m 56,5 km/h (7 Bft)
10.01.2015 07:48 12,7 C 11,1 C 85 % 1010,8 hPa 0,0 l/m 0 min 0 min 0 W/m 58,6 km/h (7 Bft)
10.01.2015 07:50 12,7 C 11,1 C 85 % 1010,8 hPa 0,0 l/m 0 min 0 min 0 W/m 60,7 km/h (7 Bft)
10.01.2015 07:52 12,7 C 11,1 C 84 % 1010,8 hPa 0,0 l/m 0 min 0 min 0 W/m 50,2 km/h (7 Bft)
10.01.2015 07:54 12,7 C 11,1 C 84 % 1010,8 hPa 0,0 l/m 0 min 0 min 0 W/m 58,6 km/h (7 Bft)
10.01.2015 07:56 12,7 C 11,1 C 84 % 1010,8 hPa 0,0 l/m 0 min 0 min 0 W/m 60,7 km/h (7 Bft)
10.01.2015 07:58 12,7 C 11,1 C 84 % 1010,8 hPa 0,0 l/m 0 min 0 min 0 W/m 71,1 km/h (8 Bft)
10.01.2015 08:00 12,7 C 11,1 C 84 % 1010,9 hPa 0,0 l/m 0 min 0 min 0 W/m 54,4 km/h (7 Bft)
10.01.2015 08:02 12,7 C 11,1 C 84 % 1010,8 hPa 0,0 l/m 0 min 0 min 0 W/m 56,5 km/h (7 Bft)
10.01.2015 08:04 12,7 C 11,1 C 84 % 1011,0 hPa 0,0 l/m 0 min 0 min 0 W/m 48,1 km/h (6 Bft)
10.01.2015 08:06 12,7 C 11,1 C 84 % 1011,0 hPa 0,0 l/m 0 min 0 min 0 W/m 46,0 km/h (6 Bft)
10.01.2015 08:08 12,7 C 11,1 C 84 % 1010,9 hPa 0,0 l/m 0 min 0 min 0 W/m 56,5 km/h (7 Bft)
10.01.2015 08:10 12,7 C 11,1 C 84 % 1010,9 hPa 0,0 l/m 0 min 0 min 0 W/m 58,6 km/h (7 Bft)
10.01.2015 08:12 12,7 C 11,1 C 84 % 1010,9 hPa 0,0 l/m 0 min 0 min 0 W/m 46,0 km/h (6 Bft)
10.01.2015 08:14 12,6 C 11,1 C 84 % 1010,8 hPa 0,0 l/m 0 min 0 min 0 W/m 60,7 km/h (7 Bft)
10.01.2015 08:16 12,7 C 11,1 C 84 % 1010,9 hPa 0,0 l/m 0 min 0 min 0 W/m 48,1 km/h (6 Bft)
10.01.2015 08:18 12,7 C 11,1 C 84 % 1010,8 hPa 0,0 l/m 0 min 0 min 0 W/m 48,1 km/h (6 Bft)
10.01.2015 08:20 12,7 C 11,1 C 84 % 1011,0 hPa 0,0 l/m 0 min 0 min 0 W/m 62,8 km/h (8 Bft)
10.01.2015 08:22 12,6 C 11,1 C 84 % 1010,7 hPa 0,0 l/m 0 min 0 min 0 W/m 62,8 km/h (8 Bft)
10.01.2015 08:24 12,7 C 11,1 C 83 % 1010,9 hPa 0,0 l/m 0 min 0 min 0 W/m 66,9 km/h (8 Bft)
10.01.2015 08:26 12,7 C 11,1 C 83 % 1010,8 hPa 0,0 l/m 0 min 0 min 0 W/m 58,6 km/h (7 Bft)
10.01.2015 08:28 12,7 C 11,1 C 83 % 1010,8 hPa 0,0 l/m 0 min 0 min 0 W/m 48,1 km/h (6 Bft)
10.01.2015 08:30 12,7 C 11,1 C 83 % 1010,8 hPa 0,0 l/m 0 min 0 min 0 W/m 39,7 km/h (6 Bft)
10.01.2015 08:32 12,7 C 11,1 C 83 % 1010,8 hPa 0,0 l/m 0 min 0 min 0 W/m 50,2 km/h (7 Bft)
10.01.2015 08:34 12,7 C 11,1 C 83 % 1010,8 hPa 0,0 l/m 0 min 0 min 0 W/m 54,4 km/h (7 Bft)
10.01.2015 08:36 12,6 C 11,1 C 83 % 1010,9 hPa 0,0 l/m 0 min 0 min 0 W/m 54,4 km/h (7 Bft)
10.01.2015 08:38 12,6 C 11,1 C 83 % 1011,0 hPa 0,0 l/m 0 min 0 min 0 W/m 56,5 km/h (7 Bft)
10.01.2015 08:40 12,6 C 11,1 C 83 % 1011,0 hPa 0,0 l/m 0 min 0 min 0 W/m 52,3 km/h (7 Bft)
10.01.2015 08:42 12,6 C 11,1 C 83 % 1010,9 hPa 0,0 l/m 0 min 0 min 0 W/m 52,3 km/h (7 Bft)
10.01.2015 08:44 12,6 C 11,1 C 83 % 1010,9 hPa 0,0 l/m 0 min 0 min 0 W/m 52,3 km/h (7 Bft)
10.01.2015 08:46 12,6 C 11,1 C 82 % 1011,0 hPa 0,0 l/m 0 min 0 min 0 W/m 62,8 km/h (8 Bft)
10.01.2015 08:48 12,6 C 11,1 C 82 % 1011,1 hPa 0,0 l/m 0 min 0 min 0 W/m 66,9 km/h (8 Bft)
10.01.2015 08:50 12,6 C 11,1 C 82 % 1011,0 hPa 0,0 l/m 0 min 0 min 3 W/m 52,3 km/h (7 Bft)
10.01.2015 08:52 12,6 C 11,1 C 82 % 1011,0 hPa 0,0 l/m 0 min 0 min 5 W/m 58,6 km/h (7 Bft)
10.01.2015 08:54 12,6 C 11,1 C 82 % 1011,0 hPa 0,0 l/m 0 min 0 min 5 W/m 56,5 km/h (7 Bft)
10.01.2015 08:56 12,6 C 11,1 C 82 % 1010,9 hPa 0,0 l/m 0 min 0 min 5 W/m 50,2 km/h (7 Bft)
10.01.2015 08:58 12,6 C 11,1 C 82 % 1011,0 hPa 0,0 l/m 0 min 0 min 7 W/m 48,1 km/h (6 Bft)
10.01.2015 09:00 12,6 C 10,6 C 82 % 1010,9 hPa 0,0 l/m 0 min 0 min 8 W/m 46,0 km/h (6 Bft)
10.01.2015 09:02 12,6 C 10,6 C 82 % 1011,0 hPa 0,0 l/m 0 min 0 min 9 W/m 50,2 km/h (7 Bft)
10.01.2015 09:04 12,6 C 11,1 C 82 % 1011,0 hPa 0,0 l/m 0 min 0 min 10 W/m 64,9 km/h (8 Bft)
10.01.2015 09:06 12,6 C 10,6 C 82 % 1010,9 hPa 0,0 l/m 0 min 0 min 11 W/m 54,4 km/h (7 Bft)
10.01.2015 09:08 12,6 C 10,6 C 83 % 1011,0 hPa 0,0 l/m 0 min 0 min 9 W/m 52,3 km/h (7 Bft)
10.01.2015 09:10 12,6 C 10,6 C 83 % 1011,1 hPa 0,0 l/m 0 min 0 min 9 W/m 56,5 km/h (7 Bft)
10.01.2015 09:12 12,6 C 11,1 C 83 % 1010,9 hPa 0,0 l/m 0 min 0 min 11 W/m 56,5 km/h (7 Bft)
10.01.2015 09:14 12,6 C 11,1 C 83 % 1010,9 hPa 0,0 l/m 0 min 0 min 11 W/m 60,7 km/h (7 Bft)
10.01.2015 09:16 12,6 C 11,1 C 83 % 1011,1 hPa 0,0 l/m 0 min 0 min 11 W/m 43,9 km/h (6 Bft)
10.01.2015 09:18 12,6 C 11,1 C 82 % 1011,0 hPa 0,0 l/m 0 min 0 min 12 W/m 50,2 km/h (7 Bft)
10.01.2015 09:20 12,6 C 11,1 C 83 % 1011,0 hPa 0,0 l/m 0 min 0 min 13 W/m 54,4 km/h (7 Bft)
10.01.2015 09:22 12,6 C 11,1 C 82 % 1010,9 hPa 0,0 l/m 0 min 0 min 13 W/m 52,3 km/h (7 Bft)
10.01.2015 09:24 12,6 C 11,1 C 82 % 1010,9 hPa 0,0 l/m 0 min 0 min 12 W/m 58,6 km/h (7 Bft)
10.01.2015 09:26 12,6 C 11,1 C 82 % 1010,8 hPa 0,0 l/m 0 min 0 min 14 W/m 58,6 km/h (7 Bft)
10.01.2015 09:28 12,6 C 11,1 C 82 % 1010,8 hPa 0,0 l/m 0 min 0 min 15 W/m 66,9 km/h (8 Bft)
10.01.2015 09:30 12,6 C 11,1 C 82 % 1010,6 hPa 0,0 l/m 0 min 0 min 16 W/m 62,8 km/h (8 Bft)
10.01.2015 09:32 12,6 C 11,1 C 82 % 1010,5 hPa 0,0 l/m 0 min 0 min 18 W/m 43,9 km/h (6 Bft)
10.01.2015 09:34 12,6 C 11,1 C 82 % 1010,6 hPa 0,0 l/m 0 min 0 min 18 W/m 58,6 km/h (7 Bft)
10.01.2015 09:36 12,6 C 11,1 C 82 % 1010,5 hPa 0,0 l/m 0 min 0 min 19 W/m 56,5 km/h (7 Bft)
10.01.2015 09:38 12,6 C 11,1 C 82 % 1010,5 hPa 0,0 l/m 0 min 0 min 19 W/m 54,4 km/h (7 Bft)
10.01.2015 09:40 12,6 C 11,1 C 82 % 1010,6 hPa 0,0 l/m 0 min 0 min 19 W/m 62,8 km/h (8 Bft)
10.01.2015 09:42 12,6 C 11,1 C 82 % 1010,5 hPa 0,0 l/m 0 min 0 min 18 W/m 46,0 km/h (6 Bft)
10.01.2015 09:44 12,6 C 11,1 C 82 % 1010,6 hPa 0,0 l/m 0 min 0 min 17 W/m 66,9 km/h (8 Bft)
10.01.2015 09:46 12,6 C 11,1 C 82 % 1010,4 hPa 0,0 l/m 0 min 0 min 18 W/m 50,2 km/h (7 Bft)
10.01.2015 09:48 12,6 C 11,1 C 82 % 1010,5 hPa 0,0 l/m 0 min 0 min 16 W/m 56,5 km/h (7 Bft)
10.01.2015 09:50 12,6 C 11,1 C 82 % 1010,4 hPa 0,0 l/m 0 min 0 min 16 W/m 62,8 km/h (8 Bft)
10.01.2015 09:52 12,6 C 11,1 C 82 % 1010,4 hPa 0,0 l/m 0 min 0 min 16 W/m 66,9 km/h (8 Bft)
10.01.2015 09:54 12,6 C 11,1 C 82 % 1010,4 hPa 0,0 l/m 0 min 0 min 17 W/m 52,3 km/h (7 Bft)
10.01.2015 09:56 12,6 C 11,1 C 82 % 1010,4 hPa 0,0 l/m 0 min 0 min 16 W/m 50,2 km/h (7 Bft)
10.01.2015 09:58 12,6 C 11,1 C 82 % 1010,4 hPa 0,0 l/m 0 min 0 min 16 W/m 69,0 km/h (8 Bft)
10.01.2015 10:00 12,6 C 11,1 C 82 % 1010,4 hPa 0,0 l/m 0 min 0 min 18 W/m 62,8 km/h (8 Bft)
10.01.2015 10:02 12,6 C 11,1 C 82 % 1010,3 hPa 0,0 l/m 0 min 0 min 19 W/m 60,7 km/h (7 Bft)
10.01.2015 10:04 12,6 C 11,1 C 82 % 1010,3 hPa 0,0 l/m 0 min 0 min 20 W/m 58,6 km/h (7 Bft)
10.01.2015 10:06 12,6 C 11,1 C 82 % 1010,3 hPa 0,0 l/m 0 min 0 min 19 W/m 46,0 km/h (6 Bft)
10.01.2015 10:08 12,6 C 11,1 C 82 % 1010,2 hPa 0,0 l/m 0 min 0 min 22 W/m 66,9 km/h (8 Bft)
10.01.2015 10:10 12,6 C 11,1 C 82 % 1010,1 hPa 0,0 l/m 0 min 0 min 20 W/m 56,5 km/h (7 Bft)
10.01.2015 10:12 12,6 C 11,1 C 82 % 1010,0 hPa 0,0 l/m 0 min 0 min 21 W/m 69,0 km/h (8 Bft)
10.01.2015 10:14 12,6 C 11,1 C 82 % 1009,9 hPa 0,0 l/m 0 min 0 min 26 W/m 46,0 km/h (6 Bft)
10.01.2015 10:16 12,6 C 11,1 C 82 % 1009,9 hPa 0,0 l/m 0 min 0 min 29 W/m 62,8 km/h (8 Bft)
10.01.2015 10:18 12,6 C 11,1 C 82 % 1010,0 hPa 0,0 l/m 0 min 0 min 28 W/m 52,3 km/h (7 Bft)
10.01.2015 10:20 12,6 C 11,1 C 82 % 1009,8 hPa 0,0 l/m 0 min 0 min 30 W/m 71,1 km/h (8 Bft)
10.01.2015 10:22 12,6 C 11,1 C 83 % 1009,9 hPa 0,0 l/m 0 min 0 min 32 W/m 60,7 km/h (7 Bft)
10.01.2015 10:24 12,6 C 11,1 C 83 % 1009,8 hPa 0,0 l/m 0 min 0 min 38 W/m 64,9 km/h (8 Bft)
10.01.2015 10:26 12,5 C 11,1 C 83 % 1009,4 hPa 0,0 l/m 0 min 0 min 44 W/m 50,2 km/h (7 Bft)
10.01.2015 10:28 12,5 C 11,1 C 83 % 1009,4 hPa 0,0 l/m 0 min 0 min 55 W/m 81,6 km/h (9 Bft)
10.01.2015 10:30 12,6 C 11,1 C 83 % 1009,3 hPa 0,0 l/m 0 min 0 min 63 W/m 60,7 km/h (7 Bft)
10.01.2015 10:32 12,6 C 11,1 C 83 % 1009,3 hPa 0,0 l/m 0 min 0 min 71 W/m 71,1 km/h (8 Bft)
10.01.2015 10:34 12,6 C 11,1 C 83 % 1009,2 hPa 0,0 l/m 0 min 0 min 85 W/m 52,3 km/h (7 Bft)
10.01.2015 10:36 12,6 C 11,1 C 83 % 1009,0 hPa 0,0 l/m 0 min 0 min 93 W/m 62,8 km/h (8 Bft)
10.01.2015 10:38 12,6 C 11,1 C 83 % 1008,9 hPa 0,0 l/m 0 min 0 min 100 W/m 54,4 km/h (7 Bft)
10.01.2015 10:40 12,6 C 11,1 C 83 % 1009,0 hPa 0,0 l/m 0 min 0 min 93 W/m 58,6 km/h (7 Bft)
10.01.2015 10:42 12,6 C 11,1 C 83 % 1008,9 hPa 0,0 l/m 0 min 0 min 84 W/m 69,0 km/h (8 Bft)
10.01.2015 10:44 12,6 C 11,1 C 83 % 1008,8 hPa 0,0 l/m 0 min 0 min 85 W/m 64,9 km/h (8 Bft)
10.01.2015 10:46 12,6 C 11,1 C 83 % 1008,8 hPa 0,0 l/m 0 min 0 min 94 W/m 48,1 km/h (6 Bft)
10.01.2015 10:48 12,6 C 11,1 C 83 % 1008,8 hPa 0,0 l/m 0 min 0 min 97 W/m 60,7 km/h (7 Bft)
10.01.2015 10:50 12,6 C 11,1 C 83 % 1008,9 hPa 0,0 l/m 0 min 0 min 82 W/m 60,7 km/h (7 Bft)
10.01.2015 10:52 12,6 C 11,1 C 83 % 1009,0 hPa 0,0 l/m 0 min 0 min 71 W/m 50,2 km/h (7 Bft)
10.01.2015 10:54 12,6 C 11,1 C 83 % 1009,1 hPa 0,0 l/m 0 min 0 min 74 W/m 60,7 km/h (7 Bft)
10.01.2015 10:56 12,6 C 11,1 C 83 % 1009,1 hPa 0,0 l/m 0 min 0 min 75 W/m 58,6 km/h (7 Bft)
10.01.2015 10:58 12,6 C 11,1 C 83 % 1009,2 hPa 0,0 l/m 0 min 0 min 88 W/m 48,1 km/h (6 Bft)
10.01.2015 11:00 12,6 C 11,1 C 83 % 1009,2 hPa 0,0 l/m 0 min 0 min 88 W/m 54,4 km/h (7 Bft)
10.01.2015 11:02 12,6 C 11,1 C 83 % 1009,1 hPa 0,0 l/m 0 min 0 min 82 W/m 50,2 km/h (7 Bft)
10.01.2015 11:04 12,6 C 11,1 C 83 % 1009,2 hPa 0,0 l/m 0 min 0 min 90 W/m 62,8 km/h (8 Bft)
10.01.2015 11:06 12,6 C 11,1 C 84 % 1009,2 hPa 0,0 l/m 0 min 0 min 67 W/m 52,3 km/h (7 Bft)
10.01.2015 11:08 12,6 C 11,1 C 83 % 1009,2 hPa 0,0 l/m 0 min 0 min 66 W/m 64,9 km/h (8 Bft)
10.01.2015 11:10 12,6 C 11,1 C 84 % 1009,2 hPa 0,0 l/m 0 min 0 min 66 W/m 60,7 km/h (7 Bft)
10.01.2015 11:12 12,6 C 11,1 C 83 % 1009,5 hPa 0,0 l/m 0 min 0 min 83 W/m 73,2 km/h (8 Bft)
10.01.2015 11:14 12,6 C 11,1 C 83 % 1009,4 hPa 0,0 l/m 0 min 0 min 66 W/m 58,6 km/h (7 Bft)
10.01.2015 11:16 12,6 C 11,1 C 83 % 1009,4 hPa 0,0 l/m 0 min 0 min 73 W/m 54,4 km/h (7 Bft)
10.01.2015 11:18 12,6 C 11,1 C 84 % 1009,4 hPa 0,0 l/m 0 min 0 min 75 W/m 52,3 km/h (7 Bft)
10.01.2015 11:20 12,6 C 11,1 C 84 % 1009,4 hPa 0,0 l/m 0 min 0 min 70 W/m 69,0 km/h (8 Bft)
10.01.2015 11:22 12,6 C 11,1 C 84 % 1009,5 hPa 0,0 l/m 0 min 0 min 73 W/m 56,5 km/h (7 Bft)
10.01.2015 11:24 12,6 C 11,1 C 84 % 1009,4 hPa 0,0 l/m 0 min 0 min 59 W/m 60,7 km/h (7 Bft)
10.01.2015 11:26 12,6 C 11,1 C 84 % 1009,5 hPa 0,0 l/m 0 min 0 min 58 W/m 69,0 km/h (8 Bft)
10.01.2015 11:28 12,6 C 11,1 C 84 % 1009,4 hPa 0,0 l/m 0 min 0 min 65 W/m 64,9 km/h (8 Bft)
10.01.2015 11:30 12,6 C 11,1 C 84 % 1009,5 hPa 0,0 l/m 0 min 0 min 60 W/m 71,1 km/h (8 Bft)
10.01.2015 11:32 12,6 C 11,1 C 84 % 1009,4 hPa 0,0 l/m 0 min 0 min 61 W/m 66,9 km/h (8 Bft)
10.01.2015 11:34 12,6 C 11,1 C 84 % 1009,3 hPa 0,0 l/m 0 min 0 min 72 W/m 58,6 km/h (7 Bft)
10.01.2015 11:36 12,6 C 11,1 C 84 % 1009,4 hPa 0,0 l/m 0 min 0 min 73 W/m 60,7 km/h (7 Bft)
10.01.2015 11:38 12,6 C 11,1 C 84 % 1009,2 hPa 0,0 l/m 0 min 0 min 83 W/m 58,6 km/h (7 Bft)
10.01.2015 11:40 12,6 C 11,1 C 84 % 1009,4 hPa 0,0 l/m 0 min 0 min 102 W/m 48,1 km/h (6 Bft)
10.01.2015 11:42 12,6 C 11,1 C 84 % 1009,4 hPa 0,0 l/m 0 min 0 min 102 W/m 52,3 km/h (7 Bft)
10.01.2015 11:44 12,6 C 11,1 C 84 % 1009,3 hPa 0,0 l/m 0 min 0 min 104 W/m 62,8 km/h (8 Bft)
10.01.2015 11:46 12,6 C 11,1 C 84 % 1009,2 hPa 0,0 l/m 0 min 0 min 99 W/m 46,0 km/h (6 Bft)
10.01.2015 11:48 12,6 C 11,1 C 85 % 1009,0 hPa 0,0 l/m 0 min 0 min 113 W/m 83,7 km/h (9 Bft)
10.01.2015 11:50 12,6 C 11,7 C 85 % 1009,1 hPa 0,0 l/m 2 min 0 min 156 W/m 75,3 km/h (9 Bft)
10.01.2015 11:52 12,6 C 11,7 C 85 % 1008,9 hPa 0,0 l/m 2 min 0 min 187 W/m 69,0 km/h (8 Bft)
10.01.2015 11:54 12,6 C 11,7 C 85 % 1008,9 hPa 0,0 l/m 2 min 0 min 182 W/m 56,5 km/h (7 Bft)
10.01.2015 11:56 12,6 C 11,7 C 85 % 1009,0 hPa 0,0 l/m 2 min 0 min 205 W/m 58,6 km/h (7 Bft)
10.01.2015 11:58 12,6 C 11,7 C 85 % 1008,8 hPa 0,0 l/m 2 min 0 min 188 W/m 54,4 km/h (7 Bft)
10.01.2015 12:00 12,7 C 11,7 C 85 % 1008,9 hPa 0,0 l/m 2 min 0 min 161 W/m 58,6 km/h (7 Bft)
10.01.2015 12:02 12,7 C 11,7 C 85 % 1008,8 hPa 0,0 l/m 2 min 0 min 158 W/m 64,9 km/h (8 Bft)
10.01.2015 12:05 12,7 C 11,7 C 85 % 1008,8 hPa 0,0 l/m 2 min 0 min 179 W/m 62,8 km/h (8 Bft)
10.01.2015 12:07 12,7 C 11,7 C 85 % 1008,6 hPa 0,0 l/m 2 min 0 min 158 W/m 62,8 km/h (8 Bft)
10.01.2015 12:08 12,7 C 11,7 C 85 % 1008,6 hPa 0,0 l/m 1 min 0 min 158 W/m 62,8 km/h (8 Bft)
10.01.2015 12:10 12,7 C 11,7 C 85 % 1008,6 hPa 0,0 l/m 2 min 0 min 165 W/m 62,8 km/h (8 Bft)
10.01.2015 12:12 12,7 C 11,7 C 85 % 1008,6 hPa 0,0 l/m 2 min 0 min 167 W/m 58,6 km/h (7 Bft)
10.01.2015 12:14 12,7 C 11,7 C 85 % 1008,7 hPa 0,0 l/m 2 min 0 min 153 W/m 73,2 km/h (8 Bft)
10.01.2015 12:16 12,6 C 11,7 C 86 % 1008,5 hPa 0,0 l/m 2 min 0 min 152 W/m 60,7 km/h (7 Bft)
10.01.2015 12:18 12,6 C 11,7 C 86 % 1008,6 hPa 0,0 l/m 0 min 0 min 137 W/m 66,9 km/h (8 Bft)
10.01.2015 12:20 12,6 C 11,7 C 86 % 1008,6 hPa 0,0 l/m 0 min 0 min 122 W/m 66,9 km/h (8 Bft)
10.01.2015 12:22 12,6 C 11,7 C 86 % 1008,6 hPa 0,0 l/m 0 min 0 min 115 W/m 60,7 km/h (7 Bft)
10.01.2015 12:24 12,6 C 11,1 C 86 % 1008,7 hPa 0,0 l/m 0 min 0 min 93 W/m 60,7 km/h (7 Bft)
10.01.2015 12:26 12,6 C 11,1 C 86 % 1008,6 hPa 0,0 l/m 0 min 0 min 74 W/m 60,7 km/h (7 Bft)
10.01.2015 12:28 12,6 C 11,1 C 86 % 1008,6 hPa 0,0 l/m 0 min 0 min 72 W/m 64,9 km/h (8 Bft)
10.01.2015 12:30 12,6 C 11,1 C 86 % 1008,8 hPa 0,0 l/m 0 min 0 min 60 W/m 69,0 km/h (8 Bft)
10.01.2015 12:32 12,5 C 11,1 C 86 % 1008,6 hPa 0,0 l/m 0 min 0 min 50 W/m 52,3 km/h (7 Bft)
10.01.2015 12:34 12,5 C 11,1 C 86 % 1008,5 hPa 0,0 l/m 0 min 0 min 48 W/m 75,3 km/h (9 Bft)
10.01.2015 12:36 12,5 C 11,1 C 86 % 1008,4 hPa 0,0 l/m 0 min 0 min 41 W/m 62,8 km/h (8 Bft)
10.01.2015 12:38 12,5 C 11,1 C 87 % 1008,5 hPa 0,0 l/m 0 min 0 min 43 W/m 50,2 km/h (7 Bft)
10.01.2015 12:40 12,5 C 11,1 C 87 % 1008,4 hPa 0,0 l/m 0 min 0 min 41 W/m 62,8 km/h (8 Bft)
10.01.2015 12:42 12,4 C 11,1 C 87 % 1008,4 hPa 0,0 l/m 0 min 0 min 41 W/m 56,5 km/h (7 Bft)
10.01.2015 12:44 12,4 C 11,1 C 87 % 1008,4 hPa 0,0 l/m 0 min 0 min 37 W/m 66,9 km/h (8 Bft)
10.01.2015 12:46 12,4 C 11,1 C 87 % 1008,5 hPa 0,0 l/m 0 min 0 min 36 W/m 58,6 km/h (7 Bft)
10.01.2015 12:48 12,4 C 10,6 C 87 % 1008,4 hPa 0,0 l/m 0 min 0 min 53 W/m 50,2 km/h (7 Bft)
10.01.2015 12:50 12,4 C 10,6 C 87 % 1008,4 hPa 0,0 l/m 0 min 0 min 63 W/m 48,1 km/h (6 Bft)
10.01.2015 12:52 12,3 C 10,6 C 88 % 1008,3 hPa 0,0 l/m 0 min 0 min 54 W/m 62,8 km/h (8 Bft)
10.01.2015 12:54 12,3 C 10,6 C 88 % 1008,4 hPa 0,0 l/m 0 min 0 min 47 W/m 64,9 km/h (8 Bft)
10.01.2015 12:56 12,2 C 10,6 C 88 % 1008,3 hPa 0,0 l/m 0 min 0 min 49 W/m 56,5 km/h (7 Bft)
10.01.2015 12:58 12,2 C 10,6 C 88 % 1008,4 hPa 0,0 l/m 0 min 0 min 46 W/m 41,8 km/h (6 Bft)
10.01.2015 13:00 12,2 C 10,6 C 89 % 1008,3 hPa 0,0 l/m 0 min 0 min 45 W/m 64,9 km/h (8 Bft)
10.01.2015 13:02 12,2 C 10,6 C 89 % 1008,4 hPa 0,0 l/m 0 min 0 min 46 W/m 60,7 km/h (7 Bft)
10.01.2015 13:04 12,1 C 10,6 C 89 % 1008,5 hPa 0,0 l/m 0 min 0 min 54 W/m 52,3 km/h (7 Bft)
10.01.2015 13:06 12,1 C 10,0 C 90 % 1008,4 hPa 0,0 l/m 0 min 0 min 52 W/m 62,8 km/h (8 Bft)
10.01.2015 13:08 12,0 C 10,0 C 90 % 1008,4 hPa 0,0 l/m 0 min 0 min 48 W/m 69,0 km/h (8 Bft)
10.01.2015 13:10 11,9 C 10,0 C 90 % 1008,4 hPa 0,0 l/m 0 min 0 min 53 W/m 60,7 km/h (7 Bft)
10.01.2015 13:12 11,9 C 10,0 C 91 % 1008,4 hPa 0,0 l/m 0 min 0 min 55 W/m 69,0 km/h (8 Bft)
10.01.2015 13:14 11,8 C 10,0 C 91 % 1008,3 hPa 0,0 l/m 0 min 0 min 48 W/m 54,4 km/h (7 Bft)
10.01.2015 13:16 11,8 C 10,0 C 91 % 1008,5 hPa 0,0 l/m 0 min 2 min 51 W/m 56,5 km/h (7 Bft)
10.01.2015 13:18 11,8 C 10,0 C 92 % 1008,3 hPa 0,0 l/m 0 min 2 min 49 W/m 50,2 km/h (7 Bft)
10.01.2015 13:20 11,7 C 10,0 C 92 % 1008,2 hPa 0,0 l/m 0 min 2 min 50 W/m 58,6 km/h (7 Bft)
10.01.2015 13:22 11,7 C 10,0 C 92 % 1008,3 hPa 0,0 l/m 0 min 2 min 53 W/m 35,6 km/h (5 Bft)
10.01.2015 13:24 11,7 C 10,0 C 92 % 1008,3 hPa 0,0 l/m 0 min 2 min 51 W/m 50,2 km/h (7 Bft)
10.01.2015 13:26 11,6 C 10,0 C 92 % 1008,3 hPa 0,0 l/m 0 min 2 min 52 W/m 43,9 km/h (6 Bft)
10.01.2015 13:28 11,6 C 10,0 C 93 % 1008,3 hPa 0,0 l/m 0 min 2 min 66 W/m 52,3 km/h (7 Bft)
10.01.2015 13:30 11,6 C 10,0 C 93 % 1008,3 hPa 0,0 l/m 0 min 2 min 73 W/m 48,1 km/h (6 Bft)
10.01.2015 13:32 11,6 C 10,0 C 93 % 1008,1 hPa 0,0 l/m 0 min 2 min 72 W/m 50,2 km/h (7 Bft)
10.01.2015 13:34 11,6 C 10,0 C 93 % 1008,2 hPa 0,0 l/m 0 min 2 min 68 W/m 52,3 km/h (7 Bft)
10.01.2015 13:36 11,6 C 10,0 C 93 % 1008,1 hPa 0,0 l/m 0 min 2 min 70 W/m 35,6 km/h (5 Bft)
10.01.2015 13:38 11,6 C 10,0 C 93 % 1008,1 hPa 0,0 l/m 0 min 2 min 49 W/m 46,0 km/h (6 Bft)
10.01.2015 13:40 11,6 C 10,0 C 93 % 1008,2 hPa 0,0 l/m 0 min 0 min 49 W/m 54,4 km/h (7 Bft)
10.01.2015 13:42 11,6 C 10,0 C 93 % 1008,1 hPa 0,0 l/m 0 min 2 min 53 W/m 58,6 km/h (7 Bft)
10.01.2015 13:44 11,5 C 10,0 C 94 % 1008,0 hPa 0,0 l/m 0 min 2 min 50 W/m 48,1 km/h (6 Bft)
10.01.2015 13:46 11,5 C 10,0 C 94 % 1007,9 hPa 0,0 l/m 0 min 2 min 56 W/m 48,1 km/h (6 Bft)
10.01.2015 13:48 11,5 C 10,0 C 94 % 1007,9 hPa 0,0 l/m 0 min 2 min 48 W/m 48,1 km/h (6 Bft)
10.01.2015 13:50 11,5 C 10,0 C 94 % 1007,9 hPa 0,0 l/m 0 min 2 min 47 W/m 56,5 km/h (7 Bft)
10.01.2015 13:52 11,5 C 10,0 C 94 % 1007,9 hPa 0,0 l/m 0 min 2 min 41 W/m 46,0 km/h (6 Bft)
10.01.2015 13:54 11,5 C 10,0 C 94 % 1008,0 hPa 0,0 l/m 0 min 2 min 42 W/m 46,0 km/h (6 Bft)
10.01.2015 13:56 11,5 C 10,0 C 94 % 1007,7 hPa 0,0 l/m 0 min 2 min 49 W/m 48,1 km/h (6 Bft)
10.01.2015 13:58 11,5 C 10,0 C 94 % 1007,8 hPa 0,0 l/m 0 min 2 min 44 W/m 41,8 km/h (6 Bft)
10.01.2015 14:00 11,5 C 10,0 C 94 % 1007,8 hPa 0,0 l/m 0 min 2 min 39 W/m 43,9 km/h (6 Bft)
10.01.2015 14:02 11,5 C 10,0 C 94 % 1007,9 hPa 0,0 l/m 0 min 2 min 35 W/m 50,2 km/h (7 Bft)
10.01.2015 14:04 11,5 C 10,0 C 94 % 1007,7 hPa 0,2 l/m 0 min 2 min 35 W/m 62,8 km/h (8 Bft)
10.01.2015 14:06 11,4 C 10,0 C 94 % 1007,7 hPa 0,0 l/m 0 min 2 min 46 W/m 39,7 km/h (6 Bft)
10.01.2015 14:08 11,5 C 10,0 C 94 % 1007,7 hPa 0,0 l/m 0 min 2 min 49 W/m 46,0 km/h (6 Bft)
10.01.2015 14:10 11,5 C 10,0 C 95 % 1007,6 hPa 0,0 l/m 0 min 2 min 41 W/m 48,1 km/h (6 Bft)
10.01.2015 14:12 11,5 C 10,0 C 95 % 1007,6 hPa 0,0 l/m 0 min 2 min 40 W/m 46,0 km/h (6 Bft)
10.01.2015 14:14 11,4 C 10,0 C 95 % 1007,5 hPa 0,0 l/m 0 min 2 min 45 W/m 50,2 km/h (7 Bft)
10.01.2015 14:16 11,5 C 10,0 C 95 % 1007,5 hPa 0,0 l/m 0 min 2 min 38 W/m 52,3 km/h (7 Bft)
10.01.2015 14:18 11,5 C 10,0 C 95 % 1007,4 hPa 0,0 l/m 0 min 2 min 37 W/m 50,2 km/h (7 Bft)
10.01.2015 14:20 11,5 C 10,0 C 95 % 1007,3 hPa 0,0 l/m 0 min 2 min 46 W/m 52,3 km/h (7 Bft)
10.01.2015 14:22 11,5 C 10,0 C 95 % 1007,5 hPa 0,0 l/m 0 min 0 min 69 W/m 56,5 km/h (7 Bft)
10.01.2015 14:24 11,6 C 10,0 C 95 % 1007,5 hPa 0,0 l/m 0 min 0 min 60 W/m 58,6 km/h (7 Bft)
10.01.2015 14:26 11,6 C 10,0 C 95 % 1007,3 hPa 0,0 l/m 0 min 2 min 63 W/m 60,7 km/h (7 Bft)
10.01.2015 14:28 11,6 C 10,0 C 95 % 1007,3 hPa 0,0 l/m 0 min 2 min 67 W/m 54,4 km/h (7 Bft)
10.01.2015 14:30 11,6 C 10,0 C 95 % 1007,2 hPa 0,0 l/m 0 min 2 min 72 W/m 60,7 km/h (7 Bft)
10.01.2015 14:32 11,7 C 10,0 C 94 % 1007,1 hPa 0,0 l/m 0 min 2 min 65 W/m 50,2 km/h (7 Bft)
10.01.2015 14:34 11,7 C 10,0 C 94 % 1007,2 hPa 0,0 l/m 0 min 2 min 68 W/m 43,9 km/h (6 Bft)
10.01.2015 14:36 11,7 C 10,0 C 94 % 1007,2 hPa 0,0 l/m 0 min 2 min 65 W/m 46,0 km/h (6 Bft)
10.01.2015 14:38 11,7 C 10,0 C 94 % 1007,2 hPa 0,0 l/m 0 min 2 min 64 W/m 52,3 km/h (7 Bft)
10.01.2015 14:40 11,7 C 10,0 C 94 % 1007,3 hPa 0,0 l/m 0 min 2 min 48 W/m 52,3 km/h (7 Bft)
10.01.2015 14:42 11,7 C 10,0 C 94 % 1007,3 hPa 0,0 l/m 0 min 2 min 46 W/m 60,7 km/h (7 Bft)
10.01.2015 14:44 11,7 C 10,0 C 94 % 1007,3 hPa 0,0 l/m 0 min 2 min 46 W/m 56,5 km/h (7 Bft)
10.01.2015 14:46 11,7 C 10,0 C 94 % 1007,3 hPa 0,0 l/m 0 min 2 min 48 W/m 52,3 km/h (7 Bft)
10.01.2015 14:48 11,7 C 10,0 C 94 % 1007,2 hPa 0,0 l/m 0 min 2 min 41 W/m 50,2 km/h (7 Bft)
10.01.2015 14:50 11,7 C 10,0 C 94 % 1007,2 hPa 0,0 l/m 0 min 2 min 45 W/m 54,4 km/h (7 Bft)
10.01.2015 14:52 11,7 C 10,0 C 94 % 1007,2 hPa 0,0 l/m 0 min 2 min 55 W/m 48,1 km/h (6 Bft)
10.01.2015 14:54 11,7 C 10,0 C 94 % 1007,2 hPa 0,0 l/m 0 min 2 min 49 W/m 56,5 km/h (7 Bft)
10.01.2015 14:56 11,7 C 10,0 C 94 % 1007,1 hPa 0,0 l/m 0 min 2 min 60 W/m 46,0 km/h (6 Bft)
10.01.2015 14:58 11,7 C 10,0 C 94 % 1007,2 hPa 0,0 l/m 0 min 2 min 44 W/m 43,9 km/h (6 Bft)
10.01.2015 15:00 11,7 C 10,0 C 95 % 1007,0 hPa 0,0 l/m 0 min 2 min 50 W/m 52,3 km/h (7 Bft)
10.01.2015 15:02 11,7 C 10,0 C 95 % 1007,1 hPa 0,0 l/m 0 min 2 min 50 W/m 50,2 km/h (7 Bft)
10.01.2015 15:04 11,7 C 10,0 C 95 % 1007,2 hPa 0,0 l/m 0 min 2 min 46 W/m 48,1 km/h (6 Bft)
10.01.2015 15:06 11,7 C 10,0 C 95 % 1007,3 hPa 0,0 l/m 0 min 2 min 46 W/m 56,5 km/h (7 Bft)
10.01.2015 15:08 11,7 C 10,0 C 95 % 1007,2 hPa 0,0 l/m 0 min 2 min 36 W/m 43,9 km/h (6 Bft)
10.01.2015 15:10 11,7 C 10,0 C 95 % 1007,3 hPa 0,0 l/m 0 min 2 min 41 W/m 64,9 km/h (8 Bft)
10.01.2015 15:12 11,8 C 10,0 C 95 % 1007,1 hPa 0,0 l/m 0 min 2 min 54 W/m 56,5 km/h (7 Bft)
10.01.2015 15:14 11,8 C 10,6 C 94 % 1007,3 hPa 0,0 l/m 0 min 2 min 47 W/m 50,2 km/h (7 Bft)
10.01.2015 15:16 11,8 C 10,6 C 95 % 1007,3 hPa 0,0 l/m 0 min 2 min 35 W/m 58,6 km/h (7 Bft)
10.01.2015 15:18 11,8 C 10,6 C 95 % 1007,3 hPa 0,0 l/m 0 min 2 min 29 W/m 43,9 km/h (6 Bft)
10.01.2015 15:20 11,8 C 10,6 C 94 % 1007,2 hPa 0,0 l/m 0 min 2 min 21 W/m 37,7 km/h (5 Bft)
10.01.2015 15:22 11,8 C 10,6 C 94 % 1007,3 hPa 0,0 l/m 0 min 2 min 25 W/m 56,5 km/h (7 Bft)
10.01.2015 15:24 11,9 C 10,6 C 94 % 1007,1 hPa 0,0 l/m 0 min 2 min 27 W/m 62,8 km/h (8 Bft)
10.01.2015 15:26 11,9 C 10,6 C 94 % 1007,3 hPa 0,0 l/m 0 min 2 min 26 W/m 46,0 km/h (6 Bft)
10.01.2015 15:28 11,9 C 10,6 C 94 % 1007,3 hPa 0,0 l/m 0 min 2 min 26 W/m 48,1 km/h (6 Bft)
10.01.2015 15:30 11,9 C 10,6 C 94 % 1007,4 hPa 0,0 l/m 0 min 2 min 25 W/m 52,3 km/h (7 Bft)
10.01.2015 15:32 11,9 C 10,6 C 94 % 1007,5 hPa 0,0 l/m 0 min 2 min 27 W/m 50,2 km/h (7 Bft)
10.01.2015 15:34 11,9 C 10,6 C 94 % 1007,4 hPa 0,0 l/m 0 min 2 min 24 W/m 43,9 km/h (6 Bft)
10.01.2015 15:36 11,9 C 10,6 C 94 % 1007,3 hPa 0,0 l/m 0 min 2 min 22 W/m 56,5 km/h (7 Bft)
10.01.2015 15:38 11,9 C 10,0 C 94 % 1007,3 hPa 0,0 l/m 0 min 2 min 17 W/m 46,0 km/h (6 Bft)
10.01.2015 15:40 11,9 C 10,0 C 94 % 1007,2 hPa 0,0 l/m 0 min 2 min 20 W/m 66,9 km/h (8 Bft)
10.01.2015 15:42 11,9 C 10,0 C 94 % 1007,3 hPa 0,0 l/m 0 min 2 min 22 W/m 58,6 km/h (7 Bft)
10.01.2015 15:44 11,9 C 10,0 C 94 % 1007,3 hPa 0,0 l/m 0 min 2 min 22 W/m 52,3 km/h (7 Bft)
10.01.2015 15:46 11,9 C 10,0 C 94 % 1007,3 hPa 0,2 l/m 0 min 2 min 22 W/m 56,5 km/h (7 Bft)
10.01.2015 15:48 11,9 C 10,0 C 94 % 1007,4 hPa 0,0 l/m 0 min 2 min 18 W/m 50,2 km/h (7 Bft)
10.01.2015 15:50 11,9 C 10,0 C 94 % 1007,8 hPa 0,0 l/m 0 min 2 min 12 W/m 46,0 km/h (6 Bft)
10.01.2015 15:52 11,9 C 10,0 C 94 % 1007,9 hPa 0,0 l/m 0 min 2 min 7 W/m 46,0 km/h (6 Bft)
10.01.2015 15:54 11,9 C 10,0 C 94 % 1008,7 hPa 1,0 l/m 0 min 2 min 1 W/m 62,8 km/h (8 Bft)
10.01.2015 15:56 11,7 C 8,3 C 94 % 1009,2 hPa 0,6 l/m 0 min 2 min 6 W/m 50,2 km/h (7 Bft)
10.01.2015 15:58 11,2 C 7,8 C 93 % 1009,1 hPa 0,2 l/m 0 min 2 min 9 W/m 48,1 km/h (6 Bft)
10.01.2015 16:00 10,8 C 7,8 C 92 % 1009,2 hPa 0,0 l/m 0 min 0 min 13 W/m 62,8 km/h (8 Bft)
10.01.2015 16:02 10,4 C 7,2 C 91 % 1009,4 hPa 0,0 l/m 0 min 0 min 14 W/m 48,1 km/h (6 Bft)
10.01.2015 16:04 10,2 C 7,2 C 91 % 1009,5 hPa 0,0 l/m 0 min 0 min 13 W/m 31,4 km/h (5 Bft)
10.01.2015 16:06 9,9 C 7,2 C 91 % 1009,5 hPa 0,0 l/m 0 min 0 min 12 W/m 41,8 km/h (6 Bft)
10.01.2015 16:08 9,7 C 7,2 C 91 % 1009,7 hPa 0,0 l/m 0 min 0 min 9 W/m 35,6 km/h (5 Bft)
10.01.2015 16:10 9,6 C 7,2 C 91 % 1009,7 hPa 0,0 l/m 0 min 0 min 9 W/m 48,1 km/h (6 Bft)
10.01.2015 16:12 9,4 C 7,2 C 91 % 1009,7 hPa 0,2 l/m 0 min 2 min 9 W/m 41,8 km/h (6 Bft)
10.01.2015 16:14 9,3 C 7,2 C 91 % 1009,7 hPa 0,0 l/m 0 min 2 min 11 W/m 31,4 km/h (5 Bft)
10.01.2015 16:16 9,2 C 6,7 C 92 % 1009,7 hPa 0,0 l/m 0 min 2 min 11 W/m 52,3 km/h (7 Bft)
10.01.2015 16:18 9,1 C 6,7 C 92 % 1009,8 hPa 0,0 l/m 0 min 2 min 11 W/m 35,6 km/h (5 Bft)
10.01.2015 16:20 8,9 C 6,7 C 92 % 1010,0 hPa 0,0 l/m 0 min 2 min 11 W/m 39,7 km/h (6 Bft)
10.01.2015 16:22 8,9 C 6,7 C 92 % 1010,0 hPa 0,0 l/m 0 min 2 min 10 W/m 39,7 km/h (6 Bft)
10.01.2015 16:24 8,8 C 6,7 C 92 % 1010,1 hPa 0,0 l/m 0 min 2 min 9 W/m 31,4 km/h (5 Bft)
10.01.2015 16:26 8,7 C 6,7 C 92 % 1010,1 hPa 0,0 l/m 0 min 2 min 8 W/m 25,1 km/h (4 Bft)
10.01.2015 16:28 8,7 C 6,7 C 92 % 1010,2 hPa 0,2 l/m 0 min 2 min 8 W/m 33,5 km/h (5 Bft)
10.01.2015 16:30 8,7 C 6,7 C 92 % 1010,3 hPa 0,0 l/m 0 min 2 min 9 W/m 35,6 km/h (5 Bft)
10.01.2015 16:32 8,6 C 6,7 C 92 % 1010,4 hPa 0,0 l/m 0 min 2 min 9 W/m 31,4 km/h (5 Bft)
10.01.2015 16:34 8,6 C 6,7 C 92 % 1010,5 hPa 0,0 l/m 0 min 2 min 7 W/m 25,1 km/h (4 Bft)
10.01.2015 16:36 8,5 C 6,7 C 93 % 1010,6 hPa 0,0 l/m 0 min 2 min 5 W/m 35,6 km/h (5 Bft)
10.01.2015 16:38 8,5 C 6,7 C 93 % 1010,6 hPa 0,0 l/m 0 min 2 min 6 W/m 31,4 km/h (5 Bft)
10.01.2015 16:40 8,4 C 6,7 C 93 % 1010,7 hPa 0,0 l/m 0 min 0 min 5 W/m 29,3 km/h (5 Bft)
10.01.2015 16:42 8,4 C 6,7 C 93 % 1010,7 hPa 0,0 l/m 0 min 0 min 5 W/m 27,2 km/h (4 Bft)
10.01.2015 16:44 8,4 C 6,7 C 93 % 1010,6 hPa 0,0 l/m 0 min 0 min 5 W/m 20,9 km/h (4 Bft)
10.01.2015 16:46 8,3 C 6,7 C 93 % 1010,7 hPa 0,0 l/m 0 min 0 min 5 W/m 39,7 km/h (6 Bft)
10.01.2015 16:48 8,3 C 6,7 C 93 % 1010,6 hPa 0,0 l/m 0 min 0 min 5 W/m 31,4 km/h (5 Bft)
10.01.2015 16:50 8,3 C 6,7 C 93 % 1010,7 hPa 0,0 l/m 0 min 0 min 0 W/m 25,1 km/h (4 Bft)
10.01.2015 16:52 8,3 C 6,7 C 93 % 1010,8 hPa 0,0 l/m 0 min 0 min 2 W/m 27,2 km/h (4 Bft)
10.01.2015 16:54 8,2 C 6,7 C 93 % 1010,8 hPa 0,0 l/m 0 min 0 min 5 W/m 27,2 km/h (4 Bft)
10.01.2015 16:56 8,2 C 6,7 C 93 % 1010,8 hPa 0,0 l/m 0 min 0 min 5 W/m 27,2 km/h (4 Bft)
10.01.2015 16:58 8,2 C 6,7 C 93 % 1010,8 hPa 0,0 l/m 0 min 0 min 1 W/m 29,3 km/h (5 Bft)
10.01.2015 17:00 8,2 C 6,7 C 93 % 1011,0 hPa 0,0 l/m 0 min 0 min 0 W/m 31,4 km/h (5 Bft)
10.01.2015 17:02 8,2 C 6,7 C 93 % 1011,1 hPa 0,0 l/m 0 min 0 min 0 W/m 27,2 km/h (4 Bft)
10.01.2015 17:04 8,1 C 6,7 C 93 % 1011,1 hPa 0,0 l/m 0 min 0 min 0 W/m 33,5 km/h (5 Bft)
10.01.2015 17:06 8,1 C 6,7 C 93 % 1011,2 hPa 0,0 l/m 0 min 0 min 0 W/m 33,5 km/h (5 Bft)
10.01.2015 17:08 8,1 C 6,7 C 93 % 1011,2 hPa 0,0 l/m 0 min 0 min 0 W/m 31,4 km/h (5 Bft)
10.01.2015 17:10 8,1 C 6,7 C 93 % 1011,3 hPa 0,0 l/m 0 min 0 min 0 W/m 41,8 km/h (6 Bft)
10.01.2015 17:12 8,1 C 6,7 C 93 % 1011,2 hPa 0,0 l/m 0 min 0 min 0 W/m 25,1 km/h (4 Bft)
10.01.2015 17:14 8,0 C 6,7 C 93 % 1011,4 hPa 0,0 l/m 0 min 0 min 0 W/m 33,5 km/h (5 Bft)
10.01.2015 17:16 8,0 C 6,7 C 93 % 1011,4 hPa 0,0 l/m 0 min 0 min 0 W/m 31,4 km/h (5 Bft)
10.01.2015 17:18 8,0 C 6,7 C 93 % 1011,5 hPa 0,0 l/m 0 min 0 min 0 W/m 29,3 km/h (5 Bft)
10.01.2015 17:20 8,0 C 6,7 C 92 % 1011,5 hPa 0,0 l/m 0 min 0 min 0 W/m 33,5 km/h (5 Bft)
10.01.2015 17:22 8,0 C 6,7 C 92 % 1011,5 hPa 0,0 l/m 0 min 0 min 0 W/m 33,5 km/h (5 Bft)
10.01.2015 17:24 8,0 C 6,7 C 92 % 1011,6 hPa 0,0 l/m 0 min 0 min 0 W/m 18,8 km/h (3 Bft)
10.01.2015 17:26 8,0 C 6,7 C 92 % 1011,8 hPa 0,0 l/m 0 min 0 min 0 W/m 25,1 km/h (4 Bft)
10.01.2015 17:28 8,0 C 6,7 C 92 % 1011,8 hPa 0,0 l/m 0 min 0 min 0 W/m 29,3 km/h (5 Bft)
10.01.2015 17:30 8,0 C 6,7 C 91 % 1012,0 hPa 0,0 l/m 0 min 0 min 0 W/m 33,5 km/h (5 Bft)
10.01.2015 17:32 8,0 C 6,7 C 91 % 1011,9 hPa 0,0 l/m 0 min 0 min 0 W/m 25,1 km/h (4 Bft)
10.01.2015 17:34 8,0 C 6,7 C 91 % 1012,1 hPa 0,0 l/m 0 min 0 min 0 W/m 25,1 km/h (4 Bft)
10.01.2015 17:36 8,0 C 6,7 C 91 % 1012,1 hPa 0,0 l/m 0 min 0 min 0 W/m 33,5 km/h (5 Bft)
10.01.2015 17:38 8,0 C 6,7 C 91 % 1012,1 hPa 0,0 l/m 0 min 0 min 0 W/m 27,2 km/h (4 Bft)
10.01.2015 17:40 8,1 C 6,7 C 90 % 1012,0 hPa 0,0 l/m 0 min 0 min 0 W/m 27,2 km/h (4 Bft)
10.01.2015 17:42 8,1 C 6,7 C 90 % 1012,0 hPa 0,0 l/m 0 min 0 min 0 W/m 23,0 km/h (4 Bft)
10.01.2015 17:44 8,1 C 6,7 C 90 % 1012,2 hPa 0,0 l/m 0 min 0 min 0 W/m 25,1 km/h (4 Bft)
10.01.2015 17:46 8,1 C 6,7 C 90 % 1012,3 hPa 0,0 l/m 0 min 0 min 0 W/m 25,1 km/h (4 Bft)
10.01.2015 17:48 8,1 C 6,7 C 90 % 1012,3 hPa 0,0 l/m 0 min 0 min 0 W/m 41,8 km/h (6 Bft)
10.01.2015 17:50 8,1 C 6,7 C 89 % 1012,4 hPa 0,0 l/m 0 min 0 min 0 W/m 29,3 km/h (5 Bft)
10.01.2015 17:52 8,1 C 6,1 C 89 % 1012,4 hPa 0,0 l/m 0 min 0 min 0 W/m 23,0 km/h (4 Bft)
10.01.2015 17:54 8,1 C 6,1 C 89 % 1012,4 hPa 0,0 l/m 0 min 0 min 0 W/m 25,1 km/h (4 Bft)
10.01.2015 17:56 8,1 C 6,1 C 89 % 1012,4 hPa 0,0 l/m 0 min 0 min 0 W/m 20,9 km/h (4 Bft)
10.01.2015 17:58 8,1 C 6,1 C 89 % 1012,5 hPa 0,0 l/m 0 min 0 min 0 W/m 27,2 km/h (4 Bft)
10.01.2015 18:00 8,1 C 6,1 C 89 % 1012,6 hPa 0,0 l/m 0 min 0 min 0 W/m 20,9 km/h (4 Bft)
10.01.2015 18:03 8,1 C 6,1 C 89 % 1012,5 hPa 0,0 l/m 0 min 0 min 0 W/m 23,0 km/h (4 Bft)
10.01.2015 18:05 8,1 C 6,1 C 89 % 1012,6 hPa 0,0 l/m 0 min 0 min 0 W/m 23,0 km/h (4 Bft)
10.01.2015 18:08 8,1 C 6,1 C 89 % 1012,7 hPa 0,0 l/m 0 min 0 min 0 W/m 23,0 km/h (4 Bft)
10.01.2015 18:10 8,1 C 6,1 C 89 % 1012,7 hPa 0,0 l/m 0 min 0 min 0 W/m 14,6 km/h (3 Bft)
10.01.2015 18:12 8,1 C 6,1 C 89 % 1012,7 hPa 0,0 l/m 0 min 0 min 0 W/m 18,8 km/h (3 Bft)
10.01.2015 18:14 8,1 C 6,1 C 89 % 1012,8 hPa 0,0 l/m 0 min 0 min 0 W/m 18,8 km/h (3 Bft)
10.01.2015 18:16 8,0 C 6,1 C 89 % 1012,9 hPa 0,0 l/m 0 min 0 min 0 W/m 20,9 km/h (4 Bft)
10.01.2015 18:18 8,0 C 6,1 C 89 % 1012,9 hPa 0,0 l/m 0 min 0 min 0 W/m 18,8 km/h (3 Bft)
10.01.2015 18:20 7,9 C 6,1 C 89 % 1012,9 hPa 0,0 l/m 0 min 0 min 0 W/m 23,0 km/h (4 Bft)
10.01.2015 18:22 7,9 C 6,1 C 89 % 1012,9 hPa 0,0 l/m 0 min 0 min 0 W/m 20,9 km/h (4 Bft)
10.01.2015 18:24 7,9 C 6,1 C 89 % 1012,9 hPa 0,0 l/m 0 min 0 min 0 W/m 23,0 km/h (4 Bft)
10.01.2015 18:26 7,9 C 5,6 C 88 % 1013,0 hPa 0,0 l/m 0 min 0 min 0 W/m 18,8 km/h (3 Bft)
10.01.2015 18:28 7,8 C 5,6 C 88 % 1013,1 hPa 0,0 l/m 0 min 0 min 0 W/m 18,8 km/h (3 Bft)
10.01.2015 18:30 7,8 C 5,6 C 88 % 1013,2 hPa 0,0 l/m 0 min 0 min 0 W/m 18,8 km/h (3 Bft)
10.01.2015 18:32 7,8 C 5,6 C 88 % 1013,3 hPa 0,0 l/m 0 min 0 min 0 W/m 29,3 km/h (5 Bft)
10.01.2015 18:34 7,7 C 5,6 C 88 % 1013,3 hPa 0,0 l/m 0 min 0 min 0 W/m 25,1 km/h (4 Bft)
10.01.2015 18:36 7,7 C 5,6 C 88 % 1013,4 hPa 0,0 l/m 0 min 0 min 0 W/m 25,1 km/h (4 Bft)
10.01.2015 18:38 7,7 C 5,6 C 87 % 1013,4 hPa 0,0 l/m 0 min 0 min 0 W/m 37,7 km/h (5 Bft)
10.01.2015 18:40 7,6 C 5,6 C 87 % 1013,6 hPa 0,0 l/m 0 min 0 min 0 W/m 27,2 km/h (4 Bft)
10.01.2015 18:42 7,6 C 5,6 C 86 % 1013,7 hPa 0,0 l/m 0 min 0 min 0 W/m 23,0 km/h (4 Bft)
10.01.2015 18:44 7,5 C 5,6 C 85 % 1013,6 hPa 0,0 l/m 0 min 0 min 0 W/m 29,3 km/h (5 Bft)
10.01.2015 18:46 7,4 C 5,6 C 85 % 1013,6 hPa 0,0 l/m 0 min 0 min 0 W/m 25,1 km/h (4 Bft)
10.01.2015 18:48 7,4 C 5,6 C 84 % 1013,7 hPa 0,0 l/m 0 min 0 min 0 W/m 25,1 km/h (4 Bft)
10.01.2015 18:50 7,4 C 5,6 C 83 % 1013,7 hPa 0,0 l/m 0 min 0 min 0 W/m 35,6 km/h (5 Bft)
10.01.2015 18:52 7,4 C 5,6 C 83 % 1013,7 hPa 0,0 l/m 0 min 0 min 0 W/m 16,7 km/h (3 Bft)
10.01.2015 18:54 7,4 C 5,6 C 82 % 1013,8 hPa 0,0 l/m 0 min 0 min 0 W/m 20,9 km/h (4 Bft)
10.01.2015 18:56 7,4 C 5,0 C 82 % 1013,8 hPa 0,0 l/m 0 min 0 min 0 W/m 18,8 km/h (3 Bft)
10.01.2015 18:58 7,4 C 5,0 C 82 % 1013,8 hPa 0,0 l/m 0 min 0 min 0 W/m 20,9 km/h (4 Bft)
10.01.2015 19:00 7,4 C 5,0 C 82 % 1013,9 hPa 0,0 l/m 0 min 0 min 0 W/m 10,5 km/h (2 Bft)
10.01.2015 19:02 7,4 C 5,0 C 82 % 1013,9 hPa 0,0 l/m 0 min 0 min 0 W/m 20,9 km/h (4 Bft)
10.01.2015 19:04 7,4 C 5,0 C 82 % 1013,9 hPa 0,0 l/m 0 min 0 min 0 W/m 23,0 km/h (4 Bft)
10.01.2015 19:06 7,4 C 5,0 C 82 % 1013,9 hPa 0,0 l/m 0 min 0 min 0 W/m 20,9 km/h (4 Bft)
10.01.2015 19:08 7,3 C 5,0 C 82 % 1014,0 hPa 0,0 l/m 0 min 0 min 0 W/m 27,2 km/h (4 Bft)
10.01.2015 19:10 7,3 C 5,0 C 82 % 1014,0 hPa 0,0 l/m 0 min 0 min 0 W/m 29,3 km/h (5 Bft)
10.01.2015 19:12 7,2 C 5,0 C 82 % 1014,0 hPa 0,0 l/m 0 min 0 min 0 W/m 31,4 km/h (5 Bft)
10.01.2015 19:14 7,2 C 5,0 C 82 % 1014,1 hPa 0,0 l/m 0 min 0 min 0 W/m 31,4 km/h (5 Bft)
10.01.2015 19:16 7,2 C 5,0 C 82 % 1014,1 hPa 0,0 l/m 0 min 0 min 0 W/m 18,8 km/h (3 Bft)
10.01.2015 19:18 7,2 C 5,0 C 82 % 1014,2 hPa 0,0 l/m 0 min 0 min 0 W/m 43,9 km/h (6 Bft)
10.01.2015 19:20 7,2 C 5,0 C 81 % 1014,1 hPa 0,0 l/m 0 min 0 min 0 W/m 35,6 km/h (5 Bft)
10.01.2015 19:22 7,1 C 5,0 C 81 % 1014,1 hPa 0,0 l/m 0 min 0 min 0 W/m 29,3 km/h (5 Bft)
10.01.2015 19:24 7,1 C 5,0 C 80 % 1014,2 hPa 0,0 l/m 0 min 0 min 0 W/m 33,5 km/h (5 Bft)
10.01.2015 19:26 7,1 C 5,0 C 80 % 1014,1 hPa 0,0 l/m 0 min 0 min 0 W/m 33,5 km/h (5 Bft)
10.01.2015 19:28 7,1 C 5,0 C 80 % 1014,1 hPa 0,0 l/m 0 min 0 min 0 W/m 27,2 km/h (4 Bft)
10.01.2015 19:30 7,1 C 5,0 C 80 % 1014,3 hPa 0,0 l/m 0 min 0 min 0 W/m 29,3 km/h (5 Bft)
10.01.2015 19:32 7,1 C 5,0 C 80 % 1014,3 hPa 0,0 l/m 0 min 0 min 0 W/m 31,4 km/h (5 Bft)
10.01.2015 19:34 7,1 C 5,0 C 80 % 1014,3 hPa 0,0 l/m 0 min 0 min 0 W/m 35,6 km/h (5 Bft)
10.01.2015 19:36 7,1 C 5,0 C 80 % 1014,3 hPa 0,0 l/m 0 min 0 min 0 W/m 29,3 km/h (5 Bft)
10.01.2015 19:38 7,1 C 5,0 C 79 % 1014,4 hPa 0,0 l/m 0 min 0 min 0 W/m 25,1 km/h (4 Bft)
10.01.2015 19:40 7,1 C 5,0 C 79 % 1014,3 hPa 0,0 l/m 0 min 0 min 0 W/m 23,0 km/h (4 Bft)
10.01.2015 19:42 7,1 C 5,0 C 79 % 1014,4 hPa 0,0 l/m 0 min 0 min 0 W/m 23,0 km/h (4 Bft)
10.01.2015 19:44 7,0 C 5,0 C 79 % 1014,4 hPa 0,0 l/m 0 min 0 min 0 W/m 31,4 km/h (5 Bft)
10.01.2015 19:46 6,9 C 5,0 C 79 % 1014,4 hPa 0,0 l/m 0 min 0 min 0 W/m 29,3 km/h (5 Bft)
10.01.2015 19:48 6,9 C 5,0 C 79 % 1014,5 hPa 0,0 l/m 0 min 0 min 0 W/m 33,5 km/h (5 Bft)
10.01.2015 19:50 6,9 C 4,4 C 78 % 1014,5 hPa 0,0 l/m 0 min 0 min 0 W/m 31,4 km/h (5 Bft)
10.01.2015 19:52 6,8 C 5,0 C 78 % 1014,5 hPa 0,0 l/m 0 min 0 min 0 W/m 35,6 km/h (5 Bft)
10.01.2015 19:54 6,8 C 5,0 C 77 % 1014,6 hPa 0,0 l/m 0 min 0 min 0 W/m 29,3 km/h (5 Bft)
10.01.2015 19:56 6,7 C 4,4 C 77 % 1014,6 hPa 0,0 l/m 0 min 0 min 0 W/m 20,9 km/h (4 Bft)
10.01.2015 19:58 6,7 C 4,4 C 77 % 1014,6 hPa 0,0 l/m 0 min 0 min 0 W/m 16,7 km/h (3 Bft)
10.01.2015 20:00 6,7 C 4,4 C 77 % 1014,7 hPa 0,0 l/m 0 min 0 min 0 W/m 27,2 km/h (4 Bft)
10.01.2015 20:02 6,6 C 4,4 C 76 % 1014,7 hPa 0,0 l/m 0 min 0 min 0 W/m 23,0 km/h (4 Bft)
10.01.2015 20:04 6,6 C 4,4 C 76 % 1014,8 hPa 0,0 l/m 0 min 0 min 0 W/m 25,1 km/h (4 Bft)
10.01.2015 20:06 6,6 C 4,4 C 76 % 1014,9 hPa 0,0 l/m 0 min 0 min 0 W/m 27,2 km/h (4 Bft)
10.01.2015 20:08 6,6 C 4,4 C 76 % 1014,9 hPa 0,0 l/m 0 min 0 min 0 W/m 20,9 km/h (4 Bft)
10.01.2015 20:10 6,5 C 4,4 C 75 % 1014,8 hPa 0,0 l/m 0 min 0 min 0 W/m 25,1 km/h (4 Bft)
10.01.2015 20:12 6,5 C 4,4 C 75 % 1014,9 hPa 0,0 l/m 0 min 0 min 0 W/m 27,2 km/h (4 Bft)
10.01.2015 20:14 6,4 C 4,4 C 75 % 1014,9 hPa 0,0 l/m 0 min 0 min 0 W/m 14,6 km/h (3 Bft)
10.01.2015 20:16 6,4 C 4,4 C 76 % 1015,0 hPa 0,0 l/m 0 min 0 min 0 W/m 14,6 km/h (3 Bft)
10.01.2015 20:18 6,4 C 4,4 C 76 % 1015,0 hPa 0,0 l/m 0 min 0 min 0 W/m 18,8 km/h (3 Bft)
10.01.2015 20:20 6,4 C 4,4 C 76 % 1014,9 hPa 0,0 l/m 0 min 0 min 0 W/m 20,9 km/h (4 Bft)
10.01.2015 20:22 6,4 C 4,4 C 76 % 1014,9 hPa 0,0 l/m 0 min 0 min 0 W/m 23,0 km/h (4 Bft)
10.01.2015 20:24 6,3 C 4,4 C 76 % 1014,9 hPa 0,0 l/m 0 min 0 min 0 W/m 16,7 km/h (3 Bft)
10.01.2015 20:26 6,3 C 3,9 C 76 % 1015,0 hPa 0,0 l/m 0 min 0 min 0 W/m 16,7 km/h (3 Bft)
10.01.2015 20:28 6,3 C 4,4 C 76 % 1015,0 hPa 0,0 l/m 0 min 0 min 0 W/m 16,7 km/h (3 Bft)
10.01.2015 20:30 6,2 C 3,9 C 76 % 1014,9 hPa 0,0 l/m 0 min 0 min 0 W/m 14,6 km/h (3 Bft)
10.01.2015 20:32 6,2 C 3,9 C 76 % 1015,1 hPa 0,0 l/m 0 min 0 min 0 W/m 16,7 km/h (3 Bft)
10.01.2015 20:34 6,2 C 3,9 C 77 % 1015,0 hPa 0,0 l/m 0 min 0 min 0 W/m 14,6 km/h (3 Bft)
10.01.2015 20:36 6,2 C 3,9 C 77 % 1015,1 hPa 0,0 l/m 0 min 0 min 0 W/m 27,2 km/h (4 Bft)
10.01.2015 20:38 6,1 C 3,9 C 77 % 1015,1 hPa 0,0 l/m 0 min 0 min 0 W/m 16,7 km/h (3 Bft)
10.01.2015 20:40 6,1 C 3,9 C 77 % 1015,1 hPa 0,0 l/m 0 min 0 min 0 W/m 16,7 km/h (3 Bft)
10.01.2015 20:42 6,1 C 3,9 C 77 % 1015,1 hPa 0,0 l/m 0 min 0 min 0 W/m 18,8 km/h (3 Bft)
10.01.2015 20:44 6,0 C 3,9 C 77 % 1015,1 hPa 0,0 l/m 0 min 0 min 0 W/m 20,9 km/h (4 Bft)
10.01.2015 20:46 6,0 C 3,9 C 77 % 1015,2 hPa 0,0 l/m 0 min 0 min 0 W/m 18,8 km/h (3 Bft)
10.01.2015 20:48 5,9 C 3,9 C 76 % 1015,2 hPa 0,0 l/m 0 min 0 min 0 W/m 18,8 km/h (3 Bft)
10.01.2015 20:50 5,9 C 3,9 C 76 % 1015,3 hPa 0,0 l/m 0 min 0 min 0 W/m 18,8 km/h (3 Bft)
10.01.2015 20:52 5,9 C 3,9 C 76 % 1015,3 hPa 0,0 l/m 0 min 0 min 0 W/m 14,6 km/h (3 Bft)
10.01.2015 20:54 5,9 C 3,9 C 76 % 1015,2 hPa 0,0 l/m 0 min 0 min 0 W/m 16,7 km/h (3 Bft)
10.01.2015 20:56 5,8 C 3,9 C 76 % 1015,2 hPa 0,0 l/m 0 min 0 min 0 W/m 14,6 km/h (3 Bft)
10.01.2015 20:58 5,8 C 3,9 C 76 % 1015,3 hPa 0,0 l/m 0 min 0 min 0 W/m 16,7 km/h (3 Bft)
10.01.2015 21:00 5,8 C 3,9 C 76 % 1015,2 hPa 0,0 l/m 0 min 0 min 0 W/m 14,6 km/h (3 Bft)
10.01.2015 21:02 5,8 C 3,9 C 76 % 1015,3 hPa 0,0 l/m 0 min 0 min 0 W/m 12,6 km/h (3 Bft)
10.01.2015 21:04 5,8 C 3,9 C 76 % 1015,3 hPa 0,0 l/m 0 min 0 min 0 W/m 12,6 km/h (3 Bft)
10.01.2015 21:06 5,7 C 3,9 C 76 % 1015,3 hPa 0,0 l/m 0 min 0 min 0 W/m 18,8 km/h (3 Bft)
10.01.2015 21:08 5,7 C 3,9 C 76 % 1015,3 hPa 0,0 l/m 0 min 0 min 0 W/m 16,7 km/h (3 Bft)
10.01.2015 21:10 5,7 C 3,9 C 77 % 1015,3 hPa 0,0 l/m 0 min 0 min 0 W/m 16,7 km/h (3 Bft)
10.01.2015 21:12 5,7 C 3,9 C 77 % 1015,4 hPa 0,0 l/m 0 min 0 min 0 W/m 16,7 km/h (3 Bft)
10.01.2015 21:14 5,7 C 3,3 C 77 % 1015,4 hPa 0,0 l/m 0 min 0 min 0 W/m 18,8 km/h (3 Bft)
10.01.2015 21:16 5,7 C 3,3 C 78 % 1015,4 hPa 0,0 l/m 0 min 0 min 0 W/m 16,7 km/h (3 Bft)
10.01.2015 21:18 5,6 C 3,3 C 78 % 1015,4 hPa 0,0 l/m 0 min 0 min 0 W/m 12,6 km/h (3 Bft)
10.01.2015 21:20 5,6 C 3,3 C 79 % 1015,4 hPa 0,0 l/m 0 min 0 min 0 W/m 14,6 km/h (3 Bft)
10.01.2015 21:22 5,6 C 3,3 C 79 % 1015,4 hPa 0,0 l/m 0 min 0 min 0 W/m 18,8 km/h (3 Bft)
10.01.2015 21:24 5,5 C 3,3 C 79 % 1015,5 hPa 0,0 l/m 0 min 0 min 0 W/m 20,9 km/h (4 Bft)
10.01.2015 21:26 5,4 C 3,3 C 79 % 1015,4 hPa 0,0 l/m 0 min 0 min 0 W/m 20,9 km/h (4 Bft)
10.01.2015 21:28 5,4 C 3,3 C 79 % 1015,4 hPa 0,0 l/m 0 min 0 min 0 W/m 20,9 km/h (4 Bft)
10.01.2015 21:30 5,4 C 3,3 C 80 % 1015,4 hPa 0,0 l/m 0 min 0 min 0 W/m 16,7 km/h (3 Bft)
10.01.2015 21:32 5,4 C 3,3 C 80 % 1015,3 hPa 0,0 l/m 0 min 0 min 0 W/m 27,2 km/h (4 Bft)
10.01.2015 21:34 5,3 C 3,3 C 79 % 1015,3 hPa 0,0 l/m 0 min 0 min 0 W/m 14,6 km/h (3 Bft)
10.01.2015 21:36 5,3 C 3,3 C 79 % 1015,3 hPa 0,0 l/m 0 min 0 min 0 W/m 16,7 km/h (3 Bft)
10.01.2015 21:38 5,3 C 3,3 C 79 % 1015,3 hPa 0,0 l/m 0 min 0 min 0 W/m 27,2 km/h (4 Bft)
10.01.2015 21:40 5,3 C 3,3 C 79 % 1015,3 hPa 0,0 l/m 0 min 0 min 0 W/m 14,6 km/h (3 Bft)
10.01.2015 21:42 5,2 C 3,3 C 79 % 1015,3 hPa 0,0 l/m 0 min 0 min 0 W/m 25,1 km/h (4 Bft)
10.01.2015 21:44 5,2 C 3,3 C 79 % 1015,3 hPa 0,0 l/m 0 min 0 min 0 W/m 25,1 km/h (4 Bft)
10.01.2015 21:46 5,2 C 3,3 C 79 % 1015,2 hPa 0,0 l/m 0 min 0 min 0 W/m 25,1 km/h (4 Bft)
10.01.2015 21:48 5,2 C 3,3 C 78 % 1015,3 hPa 0,0 l/m 0 min 0 min 0 W/m 23,0 km/h (4 Bft)
10.01.2015 21:50 5,2 C 3,3 C 78 % 1015,3 hPa 0,0 l/m 0 min 0 min 0 W/m 16,7 km/h (3 Bft)
10.01.2015 21:52 5,2 C 3,3 C 78 % 1015,3 hPa 0,0 l/m 0 min 0 min 0 W/m 16,7 km/h (3 Bft)
10.01.2015 21:54 5,1 C 3,3 C 78 % 1015,3 hPa 0,0 l/m 0 min 0 min 0 W/m 18,8 km/h (3 Bft)
10.01.2015 21:56 5,1 C 3,3 C 78 % 1015,3 hPa 0,0 l/m 0 min 0 min 0 W/m 16,7 km/h (3 Bft)
10.01.2015 21:58 5,1 C 3,3 C 78 % 1015,3 hPa 0,0 l/m 0 min 0 min 0 W/m 18,8 km/h (3 Bft)
10.01.2015 22:00 5,1 C 3,3 C 78 % 1015,4 hPa 0,0 l/m 0 min 0 min 0 W/m 14,6 km/h (3 Bft)
10.01.2015 22:02 5,1 C 3,3 C 78 % 1015,3 hPa 0,0 l/m 0 min 0 min 0 W/m 16,7 km/h (3 Bft)
10.01.2015 22:04 5,1 C 3,3 C 77 % 1015,3 hPa 0,0 l/m 0 min 0 min 0 W/m 31,4 km/h (5 Bft)
10.01.2015 22:06 5,1 C 3,3 C 77 % 1015,3 hPa 0,0 l/m 0 min 0 min 0 W/m 20,9 km/h (4 Bft)
10.01.2015 22:08 5,0 C 3,3 C 77 % 1015,4 hPa 0,0 l/m 0 min 0 min 0 W/m 23,0 km/h (4 Bft)
10.01.2015 22:10 5,0 C 3,3 C 77 % 1015,4 hPa 0,0 l/m 0 min 0 min 0 W/m 23,0 km/h (4 Bft)
10.01.2015 22:12 5,0 C 3,3 C 77 % 1015,4 hPa 0,0 l/m 0 min 0 min 0 W/m 16,7 km/h (3 Bft)
10.01.2015 22:14 4,9 C 3,3 C 77 % 1015,5 hPa 0,0 l/m 0 min 0 min 0 W/m 14,6 km/h (3 Bft)
10.01.2015 22:16 4,9 C 3,3 C 78 % 1015,5 hPa 0,0 l/m 0 min 0 min 0 W/m 16,7 km/h (3 Bft)
10.01.2015 22:18 4,9 C 3,3 C 78 % 1015,4 hPa 0,0 l/m 0 min 0 min 0 W/m 20,9 km/h (4 Bft)
10.01.2015 22:20 4,9 C 3,3 C 78 % 1015,5 hPa 0,0 l/m 0 min 0 min 0 W/m 16,7 km/h (3 Bft)
10.01.2015 22:22 4,9 C 3,3 C 77 % 1015,5 hPa 0,0 l/m 0 min 0 min 0 W/m 16,7 km/h (3 Bft)
10.01.2015 22:24 4,8 C 3,3 C 77 % 1015,5 hPa 0,0 l/m 0 min 0 min 0 W/m 12,6 km/h (3 Bft)
10.01.2015 22:26 4,8 C 2,8 C 78 % 1015,5 hPa 0,0 l/m 0 min 0 min 0 W/m 10,5 km/h (2 Bft)
10.01.2015 22:28 4,8 C 2,8 C 78 % 1015,5 hPa 0,0 l/m 0 min 0 min 0 W/m 14,6 km/h (3 Bft)
10.01.2015 22:30 4,8 C 2,8 C 78 % 1015,5 hPa 0,0 l/m 0 min 0 min 0 W/m 14,6 km/h (3 Bft)
10.01.2015 22:32 4,8 C 2,8 C 78 % 1015,4 hPa 0,0 l/m 0 min 0 min 0 W/m 16,7 km/h (3 Bft)
10.01.2015 22:34 4,7 C 2,8 C 78 % 1015,4 hPa 0,0 l/m 0 min 0 min 0 W/m 12,6 km/h (3 Bft)
10.01.2015 22:36 4,7 C 2,8 C 78 % 1015,5 hPa 0,0 l/m 0 min 0 min 0 W/m 16,7 km/h (3 Bft)
10.01.2015 22:38 4,7 C 2,8 C 78 % 1015,5 hPa 0,0 l/m 0 min 0 min 0 W/m 18,8 km/h (3 Bft)
10.01.2015 22:40 4,6 C 2,8 C 78 % 1015,5 hPa 0,0 l/m 0 min 0 min 0 W/m 18,8 km/h (3 Bft)
10.01.2015 22:42 4,6 C 2,8 C 78 % 1015,5 hPa 0,0 l/m 0 min 0 min 0 W/m 16,7 km/h (3 Bft)
10.01.2015 22:44 4,6 C 2,8 C 78 % 1015,6 hPa 0,0 l/m 0 min 0 min 0 W/m 10,5 km/h (2 Bft)
10.01.2015 22:46 4,6 C 2,8 C 78 % 1015,5 hPa 0,0 l/m 0 min 0 min 0 W/m 16,7 km/h (3 Bft)
10.01.2015 22:48 4,5 C 2,8 C 78 % 1015,6 hPa 0,0 l/m 0 min 0 min 0 W/m 14,6 km/h (3 Bft)
10.01.2015 22:50 4,5 C 2,8 C 78 % 1015,6 hPa 0,0 l/m 0 min 0 min 0 W/m 18,8 km/h (3 Bft)
10.01.2015 22:52 4,4 C 2,8 C 78 % 1015,6 hPa 0,0 l/m 0 min 0 min 0 W/m 16,7 km/h (3 Bft)
10.01.2015 22:54 4,4 C 2,8 C 78 % 1015,6 hPa 0,0 l/m 0 min 0 min 0 W/m 16,7 km/h (3 Bft)
10.01.2015 22:56 4,4 C 2,8 C 78 % 1015,6 hPa 0,0 l/m 0 min 0 min 0 W/m 20,9 km/h (4 Bft)
10.01.2015 22:58 4,4 C 2,8 C 78 % 1015,6 hPa 0,0 l/m 0 min 0 min 0 W/m 18,8 km/h (3 Bft)
10.01.2015 23:00 4,3 C 2,8 C 78 % 1015,6 hPa 0,0 l/m 0 min 0 min 0 W/m 16,7 km/h (3 Bft)
10.01.2015 23:02 4,3 C 2,8 C 78 % 1015,6 hPa 0,0 l/m 0 min 0 min 0 W/m 18,8 km/h (3 Bft)
10.01.2015 23:04 4,3 C 2,8 C 78 % 1015,7 hPa 0,0 l/m 0 min 0 min 0 W/m 16,7 km/h (3 Bft)
10.01.2015 23:06 4,3 C 2,8 C 78 % 1015,7 hPa 0,0 l/m 0 min 0 min 0 W/m 18,8 km/h (3 Bft)
10.01.2015 23:08 4,3 C 2,8 C 78 % 1015,8 hPa 0,0 l/m 0 min 0 min 0 W/m 12,6 km/h (3 Bft)
10.01.2015 23:10 4,2 C 2,8 C 78 % 1015,8 hPa 0,0 l/m 0 min 0 min 0 W/m 16,7 km/h (3 Bft)
10.01.2015 23:12 4,2 C 2,8 C 78 % 1015,7 hPa 0,0 l/m 0 min 0 min 0 W/m 25,1 km/h (4 Bft)
10.01.2015 23:14 4,2 C 2,8 C 78 % 1015,7 hPa 0,0 l/m 0 min 0 min 0 W/m 18,8 km/h (3 Bft)
10.01.2015 23:16 4,2 C 2,8 C 78 % 1015,7 hPa 0,0 l/m 0 min 0 min 0 W/m 18,8 km/h (3 Bft)
10.01.2015 23:18 4,2 C 2,8 C 79 % 1015,6 hPa 0,0 l/m 0 min 0 min 0 W/m 23,0 km/h (4 Bft)
10.01.2015 23:20 4,2 C 2,8 C 79 % 1015,6 hPa 0,0 l/m 0 min 0 min 0 W/m 20,9 km/h (4 Bft)
10.01.2015 23:22 4,2 C 2,8 C 79 % 1015,7 hPa 0,0 l/m 0 min 0 min 0 W/m 23,0 km/h (4 Bft)
10.01.2015 23:24 4,2 C 2,8 C 79 % 1015,6 hPa 0,0 l/m 0 min 0 min 0 W/m 23,0 km/h (4 Bft)
10.01.2015 23:26 4,2 C 2,8 C 79 % 1015,6 hPa 0,0 l/m 0 min 0 min 0 W/m 20,9 km/h (4 Bft)
10.01.2015 23:28 4,2 C 2,8 C 79 % 1015,6 hPa 0,0 l/m 0 min 0 min 0 W/m 20,9 km/h (4 Bft)
10.01.2015 23:30 4,2 C 2,8 C 78 % 1015,6 hPa 0,0 l/m 0 min 0 min 0 W/m 14,6 km/h (3 Bft)
10.01.2015 23:32 4,2 C 2,8 C 78 % 1015,6 hPa 0,0 l/m 0 min 0 min 0 W/m 20,9 km/h (4 Bft)
10.01.2015 23:34 4,1 C 2,8 C 79 % 1015,6 hPa 0,0 l/m 0 min 0 min 0 W/m 20,9 km/h (4 Bft)
10.01.2015 23:36 4,2 C 2,8 C 79 % 1015,6 hPa 0,0 l/m 0 min 0 min 0 W/m 23,0 km/h (4 Bft)
10.01.2015 23:38 4,1 C 2,8 C 79 % 1015,6 hPa 0,0 l/m 0 min 0 min 0 W/m 20,9 km/h (4 Bft)
10.01.2015 23:40 4,1 C 2,8 C 79 % 1015,6 hPa 0,0 l/m 0 min 0 min 0 W/m 20,9 km/h (4 Bft)
10.01.2015 23:42 4,1 C 2,8 C 79 % 1015,6 hPa 0,0 l/m 0 min 0 min 0 W/m 23,0 km/h (4 Bft)
10.01.2015 23:44 4,1 C 2,8 C 79 % 1015,6 hPa 0,0 l/m 0 min 0 min 0 W/m 23,0 km/h (4 Bft)
10.01.2015 23:46 4,1 C 2,8 C 79 % 1015,6 hPa 0,0 l/m 0 min 0 min 0 W/m 20,9 km/h (4 Bft)
10.01.2015 23:48 4,1 C 2,8 C 79 % 1015,6 hPa 0,0 l/m 0 min 0 min 0 W/m 18,8 km/h (3 Bft)
10.01.2015 23:50 4,1 C 2,2 C 79 % 1015,7 hPa 0,0 l/m 0 min 0 min 0 W/m 16,7 km/h (3 Bft)
10.01.2015 23:52 4,1 C 2,2 C 79 % 1015,6 hPa 0,0 l/m 0 min 0 min 0 W/m 16,7 km/h (3 Bft)
10.01.2015 23:54 4,1 C 2,2 C 79 % 1015,6 hPa 0,0 l/m 0 min 0 min 0 W/m 18,8 km/h (3 Bft)
10.01.2015 23:56 4,1 C 2,2 C 79 % 1015,7 hPa 0,0 l/m 0 min 0 min 0 W/m 16,7 km/h (3 Bft)
10.01.2015 23:58 4,0 C 2,2 C 79 % 1015,7 hPa 0,0 l/m 0 min 0 min 0 W/m 16,7 km/h (3 Bft)
_ Min-Zeit 23:58 23:50 20:10 15:00 - - - - 19:00
Minimum _ 4,0 C 2,2 C 75 % 1007,0 hPa - - - - 10,5 km/h (2 Bft)
_ Max-Zeit 00:58 00:00 00:00 23:08 15:54 11:50 13:16 11:56 11:48
Maximum _ 13,7 C 11,7 C 98 % 1015,8 hPa 1,0 l/m 2 min 2 min 205 W/m 83,7 km/h
W-SW (9 Bft)
Durchschnitt _ 10,7 C 9,0 C 87 % 1011,7 hPa #2,6 l/m #27 min. #3:06 h 49 W/m 42,4 km/h (6 Bft)
© 2015 W. Hausmann